<?xml version="1.0" encoding="UTF-8" standalone="no" ?>
<gpx xmlns="http://www.topografix.com/GPX/1/1" xmlns:xsi="http://www.w3.org/2001/XMLSchema-instance" xsi:schemaLocation="http://www.topografix.com/GPX/1/1 http://www.topografix.com/GPX/1/1/gpx.xsd" version="1.1" creator="VisuGPX - https://www.visugpx.com">
  <metadata>
    <name>2017 MDa Fief Sauvin</name>
    <desc><![CDATA[Rando pédestre autour du Fief Sauvin]]></desc>
  </metadata>
  <trk>
    <name><![CDATA[2017 MDa Fief Sauvin_1]]></name>
    <trkseg>
      <trkpt lat="47.22027" lon="-1.04016">
        <ele>77</ele>
        <time>2017-10-01T06:34:14Z</time>
      </trkpt>
      <trkpt lat="47.22011" lon="-1.03998">
        <ele>76</ele>
        <time>2017-10-01T06:34:26Z</time>
      </trkpt>
      <trkpt lat="47.21972" lon="-1.03974">
        <ele>69</ele>
        <time>2017-10-01T06:34:56Z</time>
      </trkpt>
      <trkpt lat="47.2195" lon="-1.03955">
        <ele>64</ele>
        <time>2017-10-01T06:35:15Z</time>
      </trkpt>
      <trkpt lat="47.21926" lon="-1.03931">
        <ele>60</ele>
        <time>2017-10-01T06:35:32Z</time>
      </trkpt>
      <trkpt lat="47.21916" lon="-1.03913">
        <ele>57</ele>
        <time>2017-10-01T06:35:44Z</time>
      </trkpt>
      <trkpt lat="47.21906" lon="-1.03863">
        <ele>52</ele>
        <time>2017-10-01T06:36:08Z</time>
      </trkpt>
      <trkpt lat="47.21922" lon="-1.03792">
        <ele>45</ele>
        <time>2017-10-01T06:36:44Z</time>
      </trkpt>
      <trkpt lat="47.21931" lon="-1.03727">
        <ele>39</ele>
        <time>2017-10-01T06:37:14Z</time>
      </trkpt>
      <trkpt lat="47.21929" lon="-1.03708">
        <ele>39</ele>
        <time>2017-10-01T06:37:26Z</time>
      </trkpt>
      <trkpt lat="47.21911" lon="-1.03707">
        <ele>40</ele>
        <time>2017-10-01T06:37:38Z</time>
      </trkpt>
      <trkpt lat="47.21888" lon="-1.03727">
        <ele>39</ele>
        <time>2017-10-01T06:37:56Z</time>
      </trkpt>
      <trkpt lat="47.21837" lon="-1.03743">
        <ele>39</ele>
        <time>2017-10-01T06:38:32Z</time>
      </trkpt>
      <trkpt lat="47.21772" lon="-1.038">
        <ele>40</ele>
        <time>2017-10-01T06:39:26Z</time>
      </trkpt>
      <trkpt lat="47.21768" lon="-1.0381">
        <ele>40</ele>
        <time>2017-10-01T06:39:32Z</time>
      </trkpt>
      <trkpt lat="47.21783" lon="-1.03895">
        <ele>45</ele>
        <time>2017-10-01T06:40:14Z</time>
      </trkpt>
      <trkpt lat="47.21781" lon="-1.03926">
        <ele>50</ele>
        <time>2017-10-01T06:40:32Z</time>
      </trkpt>
      <trkpt lat="47.21747" lon="-1.03947">
        <ele>52</ele>
        <time>2017-10-01T06:41:03Z</time>
      </trkpt>
      <trkpt lat="47.21683" lon="-1.03968">
        <ele>53</ele>
        <time>2017-10-01T06:41:50Z</time>
      </trkpt>
      <trkpt lat="47.21666" lon="-1.03969">
        <ele>51</ele>
        <time>2017-10-01T06:42:02Z</time>
      </trkpt>
      <trkpt lat="47.21656" lon="-1.04007">
        <ele>56</ele>
        <time>2017-10-01T06:42:26Z</time>
      </trkpt>
      <trkpt lat="47.21656" lon="-1.04089">
        <ele>67</ele>
        <time>2017-10-01T06:43:20Z</time>
      </trkpt>
      <trkpt lat="47.21649" lon="-1.04144">
        <ele>69</ele>
        <time>2017-10-01T06:43:44Z</time>
      </trkpt>
      <trkpt lat="47.2164" lon="-1.04197">
        <ele>70</ele>
        <time>2017-10-01T06:44:08Z</time>
      </trkpt>
      <trkpt lat="47.21608" lon="-1.04321">
        <ele>71</ele>
        <time>2017-10-01T06:45:14Z</time>
      </trkpt>
      <trkpt lat="47.21607" lon="-1.04343">
        <ele>71</ele>
        <time>2017-10-01T06:45:26Z</time>
      </trkpt>
      <trkpt lat="47.21656" lon="-1.04371">
        <ele>72</ele>
        <time>2017-10-01T06:46:08Z</time>
      </trkpt>
      <trkpt lat="47.2171" lon="-1.04427">
        <ele>70</ele>
        <time>2017-10-01T06:46:56Z</time>
      </trkpt>
      <trkpt lat="47.21747" lon="-1.04445">
        <ele>71</ele>
        <time>2017-10-01T06:47:20Z</time>
      </trkpt>
      <trkpt lat="47.21807" lon="-1.04518">
        <ele>69</ele>
        <time>2017-10-01T06:48:20Z</time>
      </trkpt>
      <trkpt lat="47.21783" lon="-1.04539">
        <ele>66</ele>
        <time>2017-10-01T06:48:38Z</time>
      </trkpt>
      <trkpt lat="47.21707" lon="-1.04555">
        <ele>69</ele>
        <time>2017-10-01T06:49:32Z</time>
      </trkpt>
      <trkpt lat="47.21654" lon="-1.04578">
        <ele>70</ele>
        <time>2017-10-01T06:50:08Z</time>
      </trkpt>
      <trkpt lat="47.21605" lon="-1.04603">
        <ele>73</ele>
        <time>2017-10-01T06:50:44Z</time>
      </trkpt>
      <trkpt lat="47.2155" lon="-1.0464">
        <ele>76</ele>
        <time>2017-10-01T06:51:32Z</time>
      </trkpt>
      <trkpt lat="47.21479" lon="-1.04776">
        <ele>81</ele>
        <time>2017-10-01T06:53:03Z</time>
      </trkpt>
      <trkpt lat="47.21451" lon="-1.04863">
        <ele>77</ele>
        <time>2017-10-01T06:53:44Z</time>
      </trkpt>
      <trkpt lat="47.21412" lon="-1.04882">
        <ele>77</ele>
        <time>2017-10-01T06:54:14Z</time>
      </trkpt>
      <trkpt lat="47.21342" lon="-1.0494">
        <ele>81</ele>
        <time>2017-10-01T06:55:15Z</time>
      </trkpt>
      <trkpt lat="47.21304" lon="-1.04994">
        <ele>84</ele>
        <time>2017-10-01T06:55:56Z</time>
      </trkpt>
      <trkpt lat="47.21304" lon="-1.05016">
        <ele>84</ele>
        <time>2017-10-01T06:56:08Z</time>
      </trkpt>
      <trkpt lat="47.21242" lon="-1.05109">
        <ele>88</ele>
        <time>2017-10-01T06:57:09Z</time>
      </trkpt>
      <trkpt lat="47.21214" lon="-1.05136">
        <ele>89</ele>
        <time>2017-10-01T06:57:32Z</time>
      </trkpt>
      <trkpt lat="47.21183" lon="-1.05157">
        <ele>90</ele>
        <time>2017-10-01T06:57:56Z</time>
      </trkpt>
      <trkpt lat="47.21141" lon="-1.05198">
        <ele>92</ele>
        <time>2017-10-01T06:58:32Z</time>
      </trkpt>
      <trkpt lat="47.21132" lon="-1.05214">
        <ele>92</ele>
        <time>2017-10-01T06:58:50Z</time>
      </trkpt>
      <trkpt lat="47.21103" lon="-1.05231">
        <ele>93</ele>
        <time>2017-10-01T06:59:08Z</time>
      </trkpt>
      <trkpt lat="47.21054" lon="-1.05248">
        <ele>93</ele>
        <time>2017-10-01T06:59:44Z</time>
      </trkpt>
      <trkpt lat="47.21028" lon="-1.05248">
        <ele>93</ele>
        <time>2017-10-01T07:00:02Z</time>
      </trkpt>
      <trkpt lat="47.21009" lon="-1.05231">
        <ele>92</ele>
        <time>2017-10-01T07:00:14Z</time>
      </trkpt>
      <trkpt lat="47.20985" lon="-1.05201">
        <ele>91</ele>
        <time>2017-10-01T07:00:32Z</time>
      </trkpt>
      <trkpt lat="47.20935" lon="-1.05124">
        <ele>90</ele>
        <time>2017-10-01T07:01:26Z</time>
      </trkpt>
      <trkpt lat="47.20923" lon="-1.05112">
        <ele>89</ele>
        <time>2017-10-01T07:01:38Z</time>
      </trkpt>
      <trkpt lat="47.2092" lon="-1.05148">
        <ele>90</ele>
        <time>2017-10-01T07:02:02Z</time>
      </trkpt>
      <trkpt lat="47.20913" lon="-1.05166">
        <ele>90</ele>
        <time>2017-10-01T07:02:14Z</time>
      </trkpt>
      <trkpt lat="47.20857" lon="-1.05244">
        <ele>89</ele>
        <time>2017-10-01T07:03:08Z</time>
      </trkpt>
      <trkpt lat="47.2082" lon="-1.05283">
        <ele>89</ele>
        <time>2017-10-01T07:03:38Z</time>
      </trkpt>
      <trkpt lat="47.20805" lon="-1.05272">
        <ele>89</ele>
        <time>2017-10-01T07:03:50Z</time>
      </trkpt>
      <trkpt lat="47.20776" lon="-1.05219">
        <ele>88</ele>
        <time>2017-10-01T07:04:20Z</time>
      </trkpt>
      <trkpt lat="47.2064" lon="-1.04906">
        <ele>82</ele>
        <time>2017-10-01T07:07:14Z</time>
      </trkpt>
      <trkpt lat="47.20582" lon="-1.04798">
        <ele>76</ele>
        <time>2017-10-01T07:08:20Z</time>
      </trkpt>
      <trkpt lat="47.20567" lon="-1.04784">
        <ele>74</ele>
        <time>2017-10-01T07:08:32Z</time>
      </trkpt>
      <trkpt lat="47.2053" lon="-1.0477">
        <ele>73</ele>
        <time>2017-10-01T07:09:02Z</time>
      </trkpt>
      <trkpt lat="47.20488" lon="-1.04739">
        <ele>72</ele>
        <time>2017-10-01T07:09:32Z</time>
      </trkpt>
      <trkpt lat="47.20411" lon="-1.04696">
        <ele>69</ele>
        <time>2017-10-01T07:10:32Z</time>
      </trkpt>
      <trkpt lat="47.20382" lon="-1.04666">
        <ele>67</ele>
        <time>2017-10-01T07:11:02Z</time>
      </trkpt>
      <trkpt lat="47.20346" lon="-1.04637">
        <ele>63</ele>
        <time>2017-10-01T07:11:32Z</time>
      </trkpt>
      <trkpt lat="47.20329" lon="-1.04635">
        <ele>61</ele>
        <time>2017-10-01T07:11:44Z</time>
      </trkpt>
      <trkpt lat="47.20301" lon="-1.04643">
        <ele>54</ele>
        <time>2017-10-01T07:12:02Z</time>
      </trkpt>
      <trkpt lat="47.20263" lon="-1.04602">
        <ele>48</ele>
        <time>2017-10-01T07:12:26Z</time>
      </trkpt>
      <trkpt lat="47.20236" lon="-1.04579">
        <ele>49</ele>
        <time>2017-10-01T07:12:50Z</time>
      </trkpt>
      <trkpt lat="47.20213" lon="-1.04526">
        <ele>54</ele>
        <time>2017-10-01T07:13:20Z</time>
      </trkpt>
      <trkpt lat="47.20195" lon="-1.04516">
        <ele>57</ele>
        <time>2017-10-01T07:13:38Z</time>
      </trkpt>
      <trkpt lat="47.20186" lon="-1.04488">
        <ele>61</ele>
        <time>2017-10-01T07:13:56Z</time>
      </trkpt>
      <trkpt lat="47.20116" lon="-1.04398">
        <ele>71</ele>
        <time>2017-10-01T07:15:08Z</time>
      </trkpt>
      <trkpt lat="47.20081" lon="-1.04314">
        <ele>75</ele>
        <time>2017-10-01T07:15:56Z</time>
      </trkpt>
      <trkpt lat="47.20042" lon="-1.04238">
        <ele>77</ele>
        <time>2017-10-01T07:16:38Z</time>
      </trkpt>
      <trkpt lat="47.19994" lon="-1.04126">
        <ele>76</ele>
        <time>2017-10-01T07:17:44Z</time>
      </trkpt>
      <trkpt lat="47.1997" lon="-1.04081">
        <ele>75</ele>
        <time>2017-10-01T07:18:14Z</time>
      </trkpt>
      <trkpt lat="47.19956" lon="-1.04072">
        <ele>74</ele>
        <time>2017-10-01T07:18:26Z</time>
      </trkpt>
      <trkpt lat="47.1994" lon="-1.04069">
        <ele>72</ele>
        <time>2017-10-01T07:18:39Z</time>
      </trkpt>
      <trkpt lat="47.19882" lon="-1.04069">
        <ele>67</ele>
        <time>2017-10-01T07:19:20Z</time>
      </trkpt>
      <trkpt lat="47.19859" lon="-1.04076">
        <ele>65</ele>
        <time>2017-10-01T07:19:38Z</time>
      </trkpt>
      <trkpt lat="47.19742" lon="-1.04011">
        <ele>47</ele>
        <time>2017-10-01T07:21:02Z</time>
      </trkpt>
      <trkpt lat="47.19728" lon="-1.03999">
        <ele>46</ele>
        <time>2017-10-01T07:21:14Z</time>
      </trkpt>
      <trkpt lat="47.19721" lon="-1.03991">
        <ele>45</ele>
        <time>2017-10-01T07:21:25Z</time>
      </trkpt>
      <trkpt lat="47.19725" lon="-1.0399">
        <ele>45</ele>
        <time>2017-10-01T07:21:30Z</time>
      </trkpt>
      <trkpt lat="47.19727" lon="-1.03995">
        <ele>45</ele>
        <time>2017-10-01T07:21:32Z</time>
      </trkpt>
      <trkpt lat="47.19628" lon="-1.03967">
        <ele>47</ele>
        <time>2017-10-01T07:22:30Z</time>
      </trkpt>
      <trkpt lat="47.19596" lon="-1.03966">
        <ele>48</ele>
        <time>2017-10-01T07:22:48Z</time>
      </trkpt>
      <trkpt lat="47.19583" lon="-1.03987">
        <ele>49</ele>
        <time>2017-10-01T07:23:00Z</time>
      </trkpt>
      <trkpt lat="47.19545" lon="-1.0408">
        <ele>56</ele>
        <time>2017-10-01T07:23:54Z</time>
      </trkpt>
      <trkpt lat="47.19536" lon="-1.04112">
        <ele>60</ele>
        <time>2017-10-01T07:24:12Z</time>
      </trkpt>
      <trkpt lat="47.19513" lon="-1.04149">
        <ele>65</ele>
        <time>2017-10-01T07:24:36Z</time>
      </trkpt>
      <trkpt lat="47.19489" lon="-1.04179">
        <ele>68</ele>
        <time>2017-10-01T07:25:00Z</time>
      </trkpt>
      <trkpt lat="47.19484" lon="-1.04197">
        <ele>70</ele>
        <time>2017-10-01T07:25:12Z</time>
      </trkpt>
      <trkpt lat="47.19486" lon="-1.04193">
        <ele>70</ele>
        <time>2017-10-01T07:25:18Z</time>
      </trkpt>
      <trkpt lat="47.195" lon="-1.04216">
        <ele>72</ele>
        <time>2017-10-01T07:25:36Z</time>
      </trkpt>
      <trkpt lat="47.19505" lon="-1.0425">
        <ele>74</ele>
        <time>2017-10-01T07:25:54Z</time>
      </trkpt>
      <trkpt lat="47.19502" lon="-1.04332">
        <ele>76</ele>
        <time>2017-10-01T07:26:40Z</time>
      </trkpt>
      <trkpt lat="47.19486" lon="-1.04427">
        <ele>76</ele>
        <time>2017-10-01T07:27:16Z</time>
      </trkpt>
      <trkpt lat="47.19502" lon="-1.04433">
        <ele>75</ele>
        <time>2017-10-01T07:27:28Z</time>
      </trkpt>
      <trkpt lat="47.195" lon="-1.04464">
        <ele>75</ele>
        <time>2017-10-01T07:27:40Z</time>
      </trkpt>
      <trkpt lat="47.19493" lon="-1.04487">
        <ele>75</ele>
        <time>2017-10-01T07:27:52Z</time>
      </trkpt>
      <trkpt lat="47.19496" lon="-1.04566">
        <ele>77</ele>
        <time>2017-10-01T07:28:28Z</time>
      </trkpt>
      <trkpt lat="47.19493" lon="-1.04618">
        <ele>78</ele>
        <time>2017-10-01T07:28:46Z</time>
      </trkpt>
      <trkpt lat="47.19502" lon="-1.04927">
        <ele>79</ele>
        <time>2017-10-01T07:31:16Z</time>
      </trkpt>
      <trkpt lat="47.19509" lon="-1.0498">
        <ele>79</ele>
        <time>2017-10-01T07:31:40Z</time>
      </trkpt>
      <trkpt lat="47.19524" lon="-1.0504">
        <ele>80</ele>
        <time>2017-10-01T07:32:10Z</time>
      </trkpt>
      <trkpt lat="47.19536" lon="-1.05152">
        <ele>81</ele>
        <time>2017-10-01T07:33:04Z</time>
      </trkpt>
      <trkpt lat="47.19533" lon="-1.05179">
        <ele>81</ele>
        <time>2017-10-01T07:33:16Z</time>
      </trkpt>
      <trkpt lat="47.19522" lon="-1.05212">
        <ele>81</ele>
        <time>2017-10-01T07:33:34Z</time>
      </trkpt>
      <trkpt lat="47.19505" lon="-1.05251">
        <ele>81</ele>
        <time>2017-10-01T07:33:57Z</time>
      </trkpt>
      <trkpt lat="47.19482" lon="-1.05288">
        <ele>81</ele>
        <time>2017-10-01T07:34:21Z</time>
      </trkpt>
      <trkpt lat="47.1947" lon="-1.05322">
        <ele>80</ele>
        <time>2017-10-01T07:34:39Z</time>
      </trkpt>
      <trkpt lat="47.19479" lon="-1.05344">
        <ele>79</ele>
        <time>2017-10-01T07:34:59Z</time>
      </trkpt>
      <trkpt lat="47.19477" lon="-1.05358">
        <ele>79</ele>
        <time>2017-10-01T07:35:11Z</time>
      </trkpt>
      <trkpt lat="47.19486" lon="-1.05366">
        <ele>79</ele>
        <time>2017-10-01T07:35:17Z</time>
      </trkpt>
      <trkpt lat="47.1949" lon="-1.05356">
        <ele>79</ele>
        <time>2017-10-01T07:35:23Z</time>
      </trkpt>
      <trkpt lat="47.19504" lon="-1.05363">
        <ele>78</ele>
        <time>2017-10-01T07:35:35Z</time>
      </trkpt>
      <trkpt lat="47.19572" lon="-1.05412">
        <ele>75</ele>
        <time>2017-10-01T07:36:29Z</time>
      </trkpt>
      <trkpt lat="47.19595" lon="-1.0546">
        <ele>74</ele>
        <time>2017-10-01T07:36:59Z</time>
      </trkpt>
      <trkpt lat="47.19566" lon="-1.05512">
        <ele>74</ele>
        <time>2017-10-01T07:37:35Z</time>
      </trkpt>
      <trkpt lat="47.1949" lon="-1.05607">
        <ele>76</ele>
        <time>2017-10-01T07:38:41Z</time>
      </trkpt>
      <trkpt lat="47.19479" lon="-1.05627">
        <ele>75</ele>
        <time>2017-10-01T07:38:59Z</time>
      </trkpt>
      <trkpt lat="47.19483" lon="-1.05652">
        <ele>73</ele>
        <time>2017-10-01T07:39:11Z</time>
      </trkpt>
      <trkpt lat="47.19498" lon="-1.05699">
        <ele>70</ele>
        <time>2017-10-01T07:39:35Z</time>
      </trkpt>
      <trkpt lat="47.19513" lon="-1.05714">
        <ele>69</ele>
        <time>2017-10-01T07:39:47Z</time>
      </trkpt>
      <trkpt lat="47.19519" lon="-1.05738">
        <ele>71</ele>
        <time>2017-10-01T07:39:59Z</time>
      </trkpt>
      <trkpt lat="47.19523" lon="-1.05826">
        <ele>73</ele>
        <time>2017-10-01T07:40:41Z</time>
      </trkpt>
      <trkpt lat="47.19534" lon="-1.05885">
        <ele>74</ele>
        <time>2017-10-01T07:41:11Z</time>
      </trkpt>
      <trkpt lat="47.19523" lon="-1.05965">
        <ele>77</ele>
        <time>2017-10-01T07:41:53Z</time>
      </trkpt>
      <trkpt lat="47.19506" lon="-1.06035">
        <ele>78</ele>
        <time>2017-10-01T07:42:29Z</time>
      </trkpt>
      <trkpt lat="47.19503" lon="-1.06076">
        <ele>80</ele>
        <time>2017-10-01T07:42:47Z</time>
      </trkpt>
      <trkpt lat="47.19513" lon="-1.06082">
        <ele>80</ele>
        <time>2017-10-01T07:42:59Z</time>
      </trkpt>
      <trkpt lat="47.19522" lon="-1.06097">
        <ele>81</ele>
        <time>2017-10-01T07:43:11Z</time>
      </trkpt>
      <trkpt lat="47.19522" lon="-1.0611">
        <ele>82</ele>
        <time>2017-10-01T07:43:17Z</time>
      </trkpt>
      <trkpt lat="47.19513" lon="-1.0612">
        <ele>81</ele>
        <time>2017-10-01T07:43:33Z</time>
      </trkpt>
      <trkpt lat="47.19515" lon="-1.06139">
        <ele>82</ele>
        <time>2017-10-01T07:43:39Z</time>
      </trkpt>
      <trkpt lat="47.19537" lon="-1.06152">
        <ele>83</ele>
        <time>2017-10-01T07:44:03Z</time>
      </trkpt>
      <trkpt lat="47.19605" lon="-1.06154">
        <ele>85</ele>
        <time>2017-10-01T07:44:51Z</time>
      </trkpt>
      <trkpt lat="47.19628" lon="-1.0616">
        <ele>86</ele>
        <time>2017-10-01T07:45:09Z</time>
      </trkpt>
      <trkpt lat="47.19741" lon="-1.06155">
        <ele>89</ele>
        <time>2017-10-01T07:46:27Z</time>
      </trkpt>
      <trkpt lat="47.19814" lon="-1.06162">
        <ele>91</ele>
        <time>2017-10-01T07:47:15Z</time>
      </trkpt>
      <trkpt lat="47.19915" lon="-1.06212">
        <ele>93</ele>
        <time>2017-10-01T07:48:33Z</time>
      </trkpt>
      <trkpt lat="47.19963" lon="-1.06225">
        <ele>93</ele>
        <time>2017-10-01T07:49:09Z</time>
      </trkpt>
      <trkpt lat="47.19979" lon="-1.06271">
        <ele>94</ele>
        <time>2017-10-01T07:49:33Z</time>
      </trkpt>
      <trkpt lat="47.19985" lon="-1.06339">
        <ele>95</ele>
        <time>2017-10-01T07:50:09Z</time>
      </trkpt>
      <trkpt lat="47.1997" lon="-1.06453">
        <ele>98</ele>
        <time>2017-10-01T07:51:03Z</time>
      </trkpt>
      <trkpt lat="47.19959" lon="-1.06625">
        <ele>99</ele>
        <time>2017-10-01T07:52:21Z</time>
      </trkpt>
      <trkpt lat="47.1996" lon="-1.0664">
        <ele>100</ele>
        <time>2017-10-01T07:52:39Z</time>
      </trkpt>
      <trkpt lat="47.19979" lon="-1.06662">
        <ele>100</ele>
        <time>2017-10-01T07:52:51Z</time>
      </trkpt>
      <trkpt lat="47.19962" lon="-1.06708">
        <ele>101</ele>
        <time>2017-10-01T07:53:09Z</time>
      </trkpt>
      <trkpt lat="47.19976" lon="-1.0677">
        <ele>101</ele>
        <time>2017-10-01T07:53:33Z</time>
      </trkpt>
      <trkpt lat="47.19983" lon="-1.06825">
        <ele>101</ele>
        <time>2017-10-01T07:53:57Z</time>
      </trkpt>
      <trkpt lat="47.2" lon="-1.06886">
        <ele>100</ele>
        <time>2017-10-01T07:54:27Z</time>
      </trkpt>
      <trkpt lat="47.20042" lon="-1.06988">
        <ele>100</ele>
        <time>2017-10-01T07:55:21Z</time>
      </trkpt>
      <trkpt lat="47.20077" lon="-1.0705">
        <ele>99</ele>
        <time>2017-10-01T07:55:57Z</time>
      </trkpt>
      <trkpt lat="47.20089" lon="-1.07065">
        <ele>99</ele>
        <time>2017-10-01T07:56:09Z</time>
      </trkpt>
      <trkpt lat="47.20101" lon="-1.07094">
        <ele>99</ele>
        <time>2017-10-01T07:56:27Z</time>
      </trkpt>
      <trkpt lat="47.20144" lon="-1.07155">
        <ele>100</ele>
        <time>2017-10-01T07:57:09Z</time>
      </trkpt>
      <trkpt lat="47.20208" lon="-1.07292">
        <ele>99</ele>
        <time>2017-10-01T07:58:21Z</time>
      </trkpt>
      <trkpt lat="47.20235" lon="-1.07331">
        <ele>99</ele>
        <time>2017-10-01T07:58:45Z</time>
      </trkpt>
      <trkpt lat="47.20249" lon="-1.0737">
        <ele>99</ele>
        <time>2017-10-01T07:59:03Z</time>
      </trkpt>
      <trkpt lat="47.20277" lon="-1.07421">
        <ele>99</ele>
        <time>2017-10-01T07:59:33Z</time>
      </trkpt>
      <trkpt lat="47.20323" lon="-1.07502">
        <ele>98</ele>
        <time>2017-10-01T08:00:21Z</time>
      </trkpt>
      <trkpt lat="47.20391" lon="-1.07607">
        <ele>99</ele>
        <time>2017-10-01T08:01:27Z</time>
      </trkpt>
      <trkpt lat="47.20423" lon="-1.07676">
        <ele>99</ele>
        <time>2017-10-01T08:02:08Z</time>
      </trkpt>
      <trkpt lat="47.20429" lon="-1.07676">
        <ele>99</ele>
        <time>2017-10-01T08:02:10Z</time>
      </trkpt>
      <trkpt lat="47.20433" lon="-1.0769">
        <ele>99</ele>
        <time>2017-10-01T08:02:16Z</time>
      </trkpt>
      <trkpt lat="47.20462" lon="-1.07743">
        <ele>99</ele>
        <time>2017-10-01T08:02:46Z</time>
      </trkpt>
      <trkpt lat="47.20489" lon="-1.07775">
        <ele>100</ele>
        <time>2017-10-01T08:03:10Z</time>
      </trkpt>
      <trkpt lat="47.20503" lon="-1.07713">
        <ele>99</ele>
        <time>2017-10-01T08:03:46Z</time>
      </trkpt>
      <trkpt lat="47.20508" lon="-1.07669">
        <ele>98</ele>
        <time>2017-10-01T08:04:04Z</time>
      </trkpt>
      <trkpt lat="47.20524" lon="-1.07631">
        <ele>98</ele>
        <time>2017-10-01T08:04:22Z</time>
      </trkpt>
      <trkpt lat="47.20539" lon="-1.07573">
        <ele>96</ele>
        <time>2017-10-01T08:04:46Z</time>
      </trkpt>
      <trkpt lat="47.20556" lon="-1.07546">
        <ele>96</ele>
        <time>2017-10-01T08:04:58Z</time>
      </trkpt>
      <trkpt lat="47.20583" lon="-1.07531">
        <ele>95</ele>
        <time>2017-10-01T08:05:16Z</time>
      </trkpt>
      <trkpt lat="47.20595" lon="-1.07509">
        <ele>95</ele>
        <time>2017-10-01T08:05:28Z</time>
      </trkpt>
      <trkpt lat="47.20599" lon="-1.07482">
        <ele>94</ele>
        <time>2017-10-01T08:05:40Z</time>
      </trkpt>
      <trkpt lat="47.20598" lon="-1.07444">
        <ele>93</ele>
        <time>2017-10-01T08:05:52Z</time>
      </trkpt>
      <trkpt lat="47.20611" lon="-1.07393">
        <ele>92</ele>
        <time>2017-10-01T08:06:16Z</time>
      </trkpt>
      <trkpt lat="47.20619" lon="-1.07328">
        <ele>92</ele>
        <time>2017-10-01T08:06:47Z</time>
      </trkpt>
      <trkpt lat="47.20633" lon="-1.07308">
        <ele>92</ele>
        <time>2017-10-01T08:06:58Z</time>
      </trkpt>
      <trkpt lat="47.20646" lon="-1.07263">
        <ele>91</ele>
        <time>2017-10-01T08:07:22Z</time>
      </trkpt>
      <trkpt lat="47.20649" lon="-1.07196">
        <ele>92</ele>
        <time>2017-10-01T08:07:52Z</time>
      </trkpt>
      <trkpt lat="47.20653" lon="-1.07171">
        <ele>93</ele>
        <time>2017-10-01T08:08:04Z</time>
      </trkpt>
      <trkpt lat="47.20653" lon="-1.07035">
        <ele>96</ele>
        <time>2017-10-01T08:09:10Z</time>
      </trkpt>
      <trkpt lat="47.20659" lon="-1.06983">
        <ele>96</ele>
        <time>2017-10-01T08:09:34Z</time>
      </trkpt>
      <trkpt lat="47.20658" lon="-1.06946">
        <ele>97</ele>
        <time>2017-10-01T08:09:52Z</time>
      </trkpt>
      <trkpt lat="47.20668" lon="-1.06874">
        <ele>97</ele>
        <time>2017-10-01T08:10:22Z</time>
      </trkpt>
      <trkpt lat="47.20685" lon="-1.06533">
        <ele>102</ele>
        <time>2017-10-01T08:12:58Z</time>
      </trkpt>
      <trkpt lat="47.20692" lon="-1.06524">
        <ele>101</ele>
        <time>2017-10-01T08:13:04Z</time>
      </trkpt>
      <trkpt lat="47.20706" lon="-1.06517">
        <ele>101</ele>
        <time>2017-10-01T08:13:16Z</time>
      </trkpt>
      <trkpt lat="47.20756" lon="-1.06509">
        <ele>102</ele>
        <time>2017-10-01T08:13:46Z</time>
      </trkpt>
      <trkpt lat="47.20799" lon="-1.06491">
        <ele>102</ele>
        <time>2017-10-01T08:14:17Z</time>
      </trkpt>
      <trkpt lat="47.20858" lon="-1.06478">
        <ele>102</ele>
        <time>2017-10-01T08:14:58Z</time>
      </trkpt>
      <trkpt lat="47.20942" lon="-1.0642">
        <ele>102</ele>
        <time>2017-10-01T08:15:58Z</time>
      </trkpt>
      <trkpt lat="47.20984" lon="-1.06398">
        <ele>102</ele>
        <time>2017-10-01T08:16:28Z</time>
      </trkpt>
      <trkpt lat="47.21053" lon="-1.06385">
        <ele>102</ele>
        <time>2017-10-01T08:17:16Z</time>
      </trkpt>
      <trkpt lat="47.21078" lon="-1.06367">
        <ele>102</ele>
        <time>2017-10-01T08:17:34Z</time>
      </trkpt>
      <trkpt lat="47.21112" lon="-1.06323">
        <ele>102</ele>
        <time>2017-10-01T08:18:04Z</time>
      </trkpt>
      <trkpt lat="47.21159" lon="-1.0629">
        <ele>102</ele>
        <time>2017-10-01T08:18:40Z</time>
      </trkpt>
      <trkpt lat="47.21181" lon="-1.06284">
        <ele>101</ele>
        <time>2017-10-01T08:18:58Z</time>
      </trkpt>
      <trkpt lat="47.21183" lon="-1.06291">
        <ele>101</ele>
        <time>2017-10-01T08:19:04Z</time>
      </trkpt>
      <trkpt lat="47.2114" lon="-1.06448">
        <ele>100</ele>
        <time>2017-10-01T08:20:22Z</time>
      </trkpt>
      <trkpt lat="47.21125" lon="-1.06483">
        <ele>100</ele>
        <time>2017-10-01T08:20:40Z</time>
      </trkpt>
      <trkpt lat="47.21119" lon="-1.06514">
        <ele>100</ele>
        <time>2017-10-01T08:20:58Z</time>
      </trkpt>
      <trkpt lat="47.21089" lon="-1.06603">
        <ele>99</ele>
        <time>2017-10-01T08:21:40Z</time>
      </trkpt>
      <trkpt lat="47.2107" lon="-1.06737">
        <ele>97</ele>
        <time>2017-10-01T08:22:46Z</time>
      </trkpt>
      <trkpt lat="47.21068" lon="-1.06801">
        <ele>97</ele>
        <time>2017-10-01T08:23:16Z</time>
      </trkpt>
      <trkpt lat="47.21038" lon="-1.0687">
        <ele>96</ele>
        <time>2017-10-01T08:23:52Z</time>
      </trkpt>
      <trkpt lat="47.21002" lon="-1.06935">
        <ele>95</ele>
        <time>2017-10-01T08:24:28Z</time>
      </trkpt>
      <trkpt lat="47.2098" lon="-1.07019">
        <ele>94</ele>
        <time>2017-10-01T08:25:10Z</time>
      </trkpt>
      <trkpt lat="47.20932" lon="-1.0718">
        <ele>89</ele>
        <time>2017-10-01T08:26:28Z</time>
      </trkpt>
      <trkpt lat="47.20923" lon="-1.07248">
        <ele>88</ele>
        <time>2017-10-01T08:26:58Z</time>
      </trkpt>
      <trkpt lat="47.20896" lon="-1.07326">
        <ele>89</ele>
        <time>2017-10-01T08:27:40Z</time>
      </trkpt>
      <trkpt lat="47.20895" lon="-1.07342">
        <ele>89</ele>
        <time>2017-10-01T08:27:46Z</time>
      </trkpt>
      <trkpt lat="47.20904" lon="-1.07405">
        <ele>91</ele>
        <time>2017-10-01T08:28:16Z</time>
      </trkpt>
      <trkpt lat="47.20899" lon="-1.07485">
        <ele>93</ele>
        <time>2017-10-01T08:28:52Z</time>
      </trkpt>
      <trkpt lat="47.20874" lon="-1.07509">
        <ele>93</ele>
        <time>2017-10-01T08:29:10Z</time>
      </trkpt>
      <trkpt lat="47.20857" lon="-1.07536">
        <ele>94</ele>
        <time>2017-10-01T08:29:29Z</time>
      </trkpt>
      <trkpt lat="47.20786" lon="-1.07673">
        <ele>97</ele>
        <time>2017-10-01T08:30:46Z</time>
      </trkpt>
      <trkpt lat="47.20775" lon="-1.07707">
        <ele>97</ele>
        <time>2017-10-01T08:31:04Z</time>
      </trkpt>
      <trkpt lat="47.20759" lon="-1.0782">
        <ele>97</ele>
        <time>2017-10-01T08:31:58Z</time>
      </trkpt>
      <trkpt lat="47.20746" lon="-1.07857">
        <ele>97</ele>
        <time>2017-10-01T08:32:16Z</time>
      </trkpt>
      <trkpt lat="47.20725" lon="-1.07883">
        <ele>97</ele>
        <time>2017-10-01T08:32:34Z</time>
      </trkpt>
      <trkpt lat="47.20683" lon="-1.07906">
        <ele>97</ele>
        <time>2017-10-01T08:33:04Z</time>
      </trkpt>
      <trkpt lat="47.20631" lon="-1.07928">
        <ele>98</ele>
        <time>2017-10-01T08:33:40Z</time>
      </trkpt>
      <trkpt lat="47.20596" lon="-1.07925">
        <ele>99</ele>
        <time>2017-10-01T08:34:04Z</time>
      </trkpt>
      <trkpt lat="47.20537" lon="-1.07868">
        <ele>100</ele>
        <time>2017-10-01T08:34:52Z</time>
      </trkpt>
      <trkpt lat="47.2044" lon="-1.0771">
        <ele>99</ele>
        <time>2017-10-01T08:36:40Z</time>
      </trkpt>
      <trkpt lat="47.20308" lon="-1.07846">
        <ele>99</ele>
        <time>2017-10-01T08:38:23Z</time>
      </trkpt>
      <trkpt lat="47.20244" lon="-1.07905">
        <ele>97</ele>
        <time>2017-10-01T08:39:18Z</time>
      </trkpt>
      <trkpt lat="47.20209" lon="-1.07947">
        <ele>97</ele>
        <time>2017-10-01T08:39:48Z</time>
      </trkpt>
      <trkpt lat="47.20211" lon="-1.08009">
        <ele>97</ele>
        <time>2017-10-01T08:40:18Z</time>
      </trkpt>
      <trkpt lat="47.20216" lon="-1.08031">
        <ele>98</ele>
        <time>2017-10-01T08:40:29Z</time>
      </trkpt>
      <trkpt lat="47.2026" lon="-1.08139">
        <ele>98</ele>
        <time>2017-10-01T08:41:30Z</time>
      </trkpt>
      <trkpt lat="47.20286" lon="-1.08183">
        <ele>97</ele>
        <time>2017-10-01T08:42:00Z</time>
      </trkpt>
      <trkpt lat="47.20301" lon="-1.08226">
        <ele>97</ele>
        <time>2017-10-01T08:42:17Z</time>
      </trkpt>
      <trkpt lat="47.20298" lon="-1.08239">
        <ele>97</ele>
        <time>2017-10-01T08:42:24Z</time>
      </trkpt>
      <trkpt lat="47.20304" lon="-1.08262">
        <ele>97</ele>
        <time>2017-10-01T08:42:36Z</time>
      </trkpt>
      <trkpt lat="47.20326" lon="-1.08333">
        <ele>100</ele>
        <time>2017-10-01T08:43:12Z</time>
      </trkpt>
      <trkpt lat="47.20346" lon="-1.08366">
        <ele>99</ele>
        <time>2017-10-01T08:43:35Z</time>
      </trkpt>
      <trkpt lat="47.20347" lon="-1.08384">
        <ele>99</ele>
        <time>2017-10-01T08:43:42Z</time>
      </trkpt>
      <trkpt lat="47.20359" lon="-1.08419">
        <ele>99</ele>
        <time>2017-10-01T08:44:00Z</time>
      </trkpt>
      <trkpt lat="47.20374" lon="-1.08483">
        <ele>99</ele>
        <time>2017-10-01T08:44:30Z</time>
      </trkpt>
      <trkpt lat="47.20433" lon="-1.0869">
        <ele>99</ele>
        <time>2017-10-01T08:46:12Z</time>
      </trkpt>
      <trkpt lat="47.20504" lon="-1.08894">
        <ele>96</ele>
        <time>2017-10-01T08:47:59Z</time>
      </trkpt>
      <trkpt lat="47.20557" lon="-1.08858">
        <ele>98</ele>
        <time>2017-10-01T08:48:42Z</time>
      </trkpt>
      <trkpt lat="47.20569" lon="-1.08843">
        <ele>98</ele>
        <time>2017-10-01T08:48:54Z</time>
      </trkpt>
      <trkpt lat="47.20594" lon="-1.08831">
        <ele>97</ele>
        <time>2017-10-01T08:49:11Z</time>
      </trkpt>
      <trkpt lat="47.20606" lon="-1.08843">
        <ele>98</ele>
        <time>2017-10-01T08:49:24Z</time>
      </trkpt>
      <trkpt lat="47.20592" lon="-1.09147">
        <ele>100</ele>
        <time>2017-10-01T08:51:48Z</time>
      </trkpt>
      <trkpt lat="47.20566" lon="-1.09375">
        <ele>97</ele>
        <time>2017-10-01T08:53:30Z</time>
      </trkpt>
      <trkpt lat="47.20524" lon="-1.09686">
        <ele>92</ele>
        <time>2017-10-01T08:55:54Z</time>
      </trkpt>
      <trkpt lat="47.20522" lon="-1.09711">
        <ele>92</ele>
        <time>2017-10-01T08:56:06Z</time>
      </trkpt>
      <trkpt lat="47.20527" lon="-1.09735">
        <ele>91</ele>
        <time>2017-10-01T08:56:17Z</time>
      </trkpt>
      <trkpt lat="47.2062" lon="-1.09841">
        <ele>93</ele>
        <time>2017-10-01T08:57:36Z</time>
      </trkpt>
      <trkpt lat="47.20649" lon="-1.09862">
        <ele>95</ele>
        <time>2017-10-01T08:58:01Z</time>
      </trkpt>
      <trkpt lat="47.20698" lon="-1.09795">
        <ele>97</ele>
        <time>2017-10-01T08:58:52Z</time>
      </trkpt>
      <trkpt lat="47.2072" lon="-1.0978">
        <ele>97</ele>
        <time>2017-10-01T08:59:10Z</time>
      </trkpt>
      <trkpt lat="47.20762" lon="-1.09725">
        <ele>98</ele>
        <time>2017-10-01T08:59:51Z</time>
      </trkpt>
      <trkpt lat="47.20801" lon="-1.09693">
        <ele>99</ele>
        <time>2017-10-01T09:00:22Z</time>
      </trkpt>
      <trkpt lat="47.20824" lon="-1.09662">
        <ele>99</ele>
        <time>2017-10-01T09:00:45Z</time>
      </trkpt>
      <trkpt lat="47.20887" lon="-1.09602">
        <ele>101</ele>
        <time>2017-10-01T09:01:39Z</time>
      </trkpt>
      <trkpt lat="47.20899" lon="-1.09585">
        <ele>101</ele>
        <time>2017-10-01T09:01:51Z</time>
      </trkpt>
      <trkpt lat="47.2092" lon="-1.09541">
        <ele>101</ele>
        <time>2017-10-01T09:02:15Z</time>
      </trkpt>
      <trkpt lat="47.20924" lon="-1.09524">
        <ele>101</ele>
        <time>2017-10-01T09:02:25Z</time>
      </trkpt>
      <trkpt lat="47.20936" lon="-1.09506">
        <ele>101</ele>
        <time>2017-10-01T09:02:37Z</time>
      </trkpt>
      <trkpt lat="47.20954" lon="-1.09514">
        <ele>102</ele>
        <time>2017-10-01T09:02:49Z</time>
      </trkpt>
      <trkpt lat="47.20995" lon="-1.09551">
        <ele>100</ele>
        <time>2017-10-01T09:03:25Z</time>
      </trkpt>
      <trkpt lat="47.21045" lon="-1.09571">
        <ele>99</ele>
        <time>2017-10-01T09:04:01Z</time>
      </trkpt>
      <trkpt lat="47.21097" lon="-1.09601">
        <ele>97</ele>
        <time>2017-10-01T09:04:37Z</time>
      </trkpt>
      <trkpt lat="47.21161" lon="-1.09658">
        <ele>95</ele>
        <time>2017-10-01T09:05:25Z</time>
      </trkpt>
      <trkpt lat="47.2117" lon="-1.09656">
        <ele>95</ele>
        <time>2017-10-01T09:05:31Z</time>
      </trkpt>
      <trkpt lat="47.21225" lon="-1.09614">
        <ele>97</ele>
        <time>2017-10-01T09:06:19Z</time>
      </trkpt>
      <trkpt lat="47.21343" lon="-1.09575">
        <ele>95</ele>
        <time>2017-10-01T09:07:38Z</time>
      </trkpt>
      <trkpt lat="47.21437" lon="-1.09561">
        <ele>92</ele>
        <time>2017-10-01T09:08:38Z</time>
      </trkpt>
      <trkpt lat="47.21466" lon="-1.09566">
        <ele>92</ele>
        <time>2017-10-01T09:09:02Z</time>
      </trkpt>
      <trkpt lat="47.21593" lon="-1.09572">
        <ele>94</ele>
        <time>2017-10-01T09:10:26Z</time>
      </trkpt>
      <trkpt lat="47.21627" lon="-1.09581">
        <ele>95</ele>
        <time>2017-10-01T09:10:50Z</time>
      </trkpt>
      <trkpt lat="47.21643" lon="-1.09591">
        <ele>96</ele>
        <time>2017-10-01T09:11:02Z</time>
      </trkpt>
      <trkpt lat="47.21706" lon="-1.09636">
        <ele>97</ele>
        <time>2017-10-01T09:11:50Z</time>
      </trkpt>
      <trkpt lat="47.21736" lon="-1.09664">
        <ele>98</ele>
        <time>2017-10-01T09:12:26Z</time>
      </trkpt>
      <trkpt lat="47.21737" lon="-1.09672">
        <ele>97</ele>
        <time>2017-10-01T09:12:36Z</time>
      </trkpt>
      <trkpt lat="47.21737" lon="-1.09668">
        <ele>97</ele>
        <time>2017-10-01T09:12:40Z</time>
      </trkpt>
      <trkpt lat="47.21783" lon="-1.09692">
        <ele>98</ele>
        <time>2017-10-01T09:13:06Z</time>
      </trkpt>
      <trkpt lat="47.21812" lon="-1.09691">
        <ele>98</ele>
        <time>2017-10-01T09:13:24Z</time>
      </trkpt>
      <trkpt lat="47.21975" lon="-1.0965">
        <ele>98</ele>
        <time>2017-10-01T09:15:06Z</time>
      </trkpt>
      <trkpt lat="47.22121" lon="-1.09675">
        <ele>101</ele>
        <time>2017-10-01T09:16:36Z</time>
      </trkpt>
      <trkpt lat="47.22156" lon="-1.09702">
        <ele>102</ele>
        <time>2017-10-01T09:17:00Z</time>
      </trkpt>
      <trkpt lat="47.22229" lon="-1.09798">
        <ele>102</ele>
        <time>2017-10-01T09:18:06Z</time>
      </trkpt>
      <trkpt lat="47.22332" lon="-1.09916">
        <ele>102</ele>
        <time>2017-10-01T09:19:36Z</time>
      </trkpt>
      <trkpt lat="47.2252" lon="-1.10075">
        <ele>102</ele>
        <time>2017-10-01T09:22:06Z</time>
      </trkpt>
      <trkpt lat="47.22562" lon="-1.1004">
        <ele>102</ele>
        <time>2017-10-01T09:22:42Z</time>
      </trkpt>
      <trkpt lat="47.22651" lon="-1.09938">
        <ele>103</ele>
        <time>2017-10-01T09:24:00Z</time>
      </trkpt>
      <trkpt lat="47.22833" lon="-1.09785">
        <ele>102</ele>
        <time>2017-10-01T09:26:24Z</time>
      </trkpt>
      <trkpt lat="47.2289" lon="-1.09696">
        <ele>102</ele>
        <time>2017-10-01T09:27:34Z</time>
      </trkpt>
      <trkpt lat="47.22922" lon="-1.09657">
        <ele>107</ele>
        <time>2017-10-01T09:28:05Z</time>
      </trkpt>
      <trkpt lat="47.22952" lon="-1.09635">
        <ele>107</ele>
        <time>2017-10-01T09:28:41Z</time>
      </trkpt>
      <trkpt lat="47.22964" lon="-1.09634">
        <ele>108</ele>
        <time>2017-10-01T09:28:53Z</time>
      </trkpt>
      <trkpt lat="47.2302" lon="-1.09608">
        <ele>109</ele>
        <time>2017-10-01T09:29:23Z</time>
      </trkpt>
      <trkpt lat="47.23048" lon="-1.09605">
        <ele>106</ele>
        <time>2017-10-01T09:29:47Z</time>
      </trkpt>
      <trkpt lat="47.23113" lon="-1.09576">
        <ele>106</ele>
        <time>2017-10-01T09:30:28Z</time>
      </trkpt>
      <trkpt lat="47.2319" lon="-1.09556">
        <ele>106</ele>
        <time>2017-10-01T09:31:22Z</time>
      </trkpt>
      <trkpt lat="47.23217" lon="-1.09541">
        <ele>106</ele>
        <time>2017-10-01T09:31:40Z</time>
      </trkpt>
      <trkpt lat="47.2324" lon="-1.09525">
        <ele>106</ele>
        <time>2017-10-01T09:31:52Z</time>
      </trkpt>
      <trkpt lat="47.23253" lon="-1.09499">
        <ele>107</ele>
        <time>2017-10-01T09:32:10Z</time>
      </trkpt>
      <trkpt lat="47.23317" lon="-1.09436">
        <ele>107</ele>
        <time>2017-10-01T09:33:04Z</time>
      </trkpt>
      <trkpt lat="47.23351" lon="-1.09383">
        <ele>106</ele>
        <time>2017-10-01T09:33:34Z</time>
      </trkpt>
      <trkpt lat="47.23375" lon="-1.09328">
        <ele>105</ele>
        <time>2017-10-01T09:34:04Z</time>
      </trkpt>
      <trkpt lat="47.23378" lon="-1.09304">
        <ele>105</ele>
        <time>2017-10-01T09:34:16Z</time>
      </trkpt>
      <trkpt lat="47.23408" lon="-1.09179">
        <ele>101</ele>
        <time>2017-10-01T09:35:16Z</time>
      </trkpt>
      <trkpt lat="47.23413" lon="-1.09119">
        <ele>101</ele>
        <time>2017-10-01T09:35:46Z</time>
      </trkpt>
      <trkpt lat="47.23433" lon="-1.08982">
        <ele>100</ele>
        <time>2017-10-01T09:36:52Z</time>
      </trkpt>
      <trkpt lat="47.23542" lon="-1.08761">
        <ele>102</ele>
        <time>2017-10-01T09:39:06Z</time>
      </trkpt>
      <trkpt lat="47.23558" lon="-1.08746">
        <ele>102</ele>
        <time>2017-10-01T09:39:18Z</time>
      </trkpt>
      <trkpt lat="47.23566" lon="-1.08719">
        <ele>101</ele>
        <time>2017-10-01T09:39:30Z</time>
      </trkpt>
      <trkpt lat="47.23595" lon="-1.08667">
        <ele>101</ele>
        <time>2017-10-01T09:40:00Z</time>
      </trkpt>
      <trkpt lat="47.23599" lon="-1.08646">
        <ele>101</ele>
        <time>2017-10-01T09:40:12Z</time>
      </trkpt>
      <trkpt lat="47.23613" lon="-1.08622">
        <ele>101</ele>
        <time>2017-10-01T09:40:24Z</time>
      </trkpt>
      <trkpt lat="47.23617" lon="-1.08607">
        <ele>101</ele>
        <time>2017-10-01T09:40:36Z</time>
      </trkpt>
      <trkpt lat="47.2362" lon="-1.08574">
        <ele>99</ele>
        <time>2017-10-01T09:40:54Z</time>
      </trkpt>
      <trkpt lat="47.23618" lon="-1.08536">
        <ele>100</ele>
        <time>2017-10-01T09:41:12Z</time>
      </trkpt>
      <trkpt lat="47.2363" lon="-1.08482">
        <ele>99</ele>
        <time>2017-10-01T09:41:36Z</time>
      </trkpt>
      <trkpt lat="47.23633" lon="-1.08455">
        <ele>100</ele>
        <time>2017-10-01T09:41:48Z</time>
      </trkpt>
      <trkpt lat="47.23622" lon="-1.08303">
        <ele>98</ele>
        <time>2017-10-01T09:43:00Z</time>
      </trkpt>
      <trkpt lat="47.23639" lon="-1.08258">
        <ele>99</ele>
        <time>2017-10-01T09:43:24Z</time>
      </trkpt>
      <trkpt lat="47.23686" lon="-1.08181">
        <ele>95</ele>
        <time>2017-10-01T09:44:06Z</time>
      </trkpt>
      <trkpt lat="47.23705" lon="-1.08108">
        <ele>93</ele>
        <time>2017-10-01T09:44:42Z</time>
      </trkpt>
      <trkpt lat="47.23709" lon="-1.0807">
        <ele>91</ele>
        <time>2017-10-01T09:45:00Z</time>
      </trkpt>
      <trkpt lat="47.23706" lon="-1.08008">
        <ele>90</ele>
        <time>2017-10-01T09:45:24Z</time>
      </trkpt>
      <trkpt lat="47.237" lon="-1.07984">
        <ele>89</ele>
        <time>2017-10-01T09:45:36Z</time>
      </trkpt>
      <trkpt lat="47.23702" lon="-1.07954">
        <ele>87</ele>
        <time>2017-10-01T09:45:49Z</time>
      </trkpt>
      <trkpt lat="47.23743" lon="-1.07877">
        <ele>92</ele>
        <time>2017-10-01T09:46:37Z</time>
      </trkpt>
      <trkpt lat="47.23758" lon="-1.07829">
        <ele>93</ele>
        <time>2017-10-01T09:47:01Z</time>
      </trkpt>
      <trkpt lat="47.23771" lon="-1.07815">
        <ele>94</ele>
        <time>2017-10-01T09:47:13Z</time>
      </trkpt>
      <trkpt lat="47.23805" lon="-1.07748">
        <ele>95</ele>
        <time>2017-10-01T09:47:49Z</time>
      </trkpt>
      <trkpt lat="47.23846" lon="-1.07695">
        <ele>97</ele>
        <time>2017-10-01T09:48:25Z</time>
      </trkpt>
      <trkpt lat="47.23924" lon="-1.07629">
        <ele>99</ele>
        <time>2017-10-01T09:49:31Z</time>
      </trkpt>
      <trkpt lat="47.24041" lon="-1.07589">
        <ele>102</ele>
        <time>2017-10-01T09:50:49Z</time>
      </trkpt>
      <trkpt lat="47.24084" lon="-1.07567">
        <ele>101</ele>
        <time>2017-10-01T09:51:13Z</time>
      </trkpt>
      <trkpt lat="47.24099" lon="-1.07555">
        <ele>102</ele>
        <time>2017-10-01T09:51:25Z</time>
      </trkpt>
      <trkpt lat="47.24113" lon="-1.07553">
        <ele>103</ele>
        <time>2017-10-01T09:51:39Z</time>
      </trkpt>
      <trkpt lat="47.24147" lon="-1.07479">
        <ele>101</ele>
        <time>2017-10-01T09:52:29Z</time>
      </trkpt>
      <trkpt lat="47.24198" lon="-1.07411">
        <ele>103</ele>
        <time>2017-10-01T09:53:17Z</time>
      </trkpt>
      <trkpt lat="47.2422" lon="-1.07372">
        <ele>104</ele>
        <time>2017-10-01T09:53:41Z</time>
      </trkpt>
      <trkpt lat="47.24254" lon="-1.07324">
        <ele>106</ele>
        <time>2017-10-01T09:54:11Z</time>
      </trkpt>
      <trkpt lat="47.24261" lon="-1.07303">
        <ele>106</ele>
        <time>2017-10-01T09:54:23Z</time>
      </trkpt>
      <trkpt lat="47.2425" lon="-1.0727">
        <ele>106</ele>
        <time>2017-10-01T09:54:47Z</time>
      </trkpt>
      <trkpt lat="47.24282" lon="-1.07224">
        <ele>107</ele>
        <time>2017-10-01T09:55:23Z</time>
      </trkpt>
      <trkpt lat="47.24309" lon="-1.07168">
        <ele>107</ele>
        <time>2017-10-01T09:55:53Z</time>
      </trkpt>
      <trkpt lat="47.24359" lon="-1.07096">
        <ele>108</ele>
        <time>2017-10-01T09:56:41Z</time>
      </trkpt>
      <trkpt lat="47.24382" lon="-1.07049">
        <ele>107</ele>
        <time>2017-10-01T09:57:11Z</time>
      </trkpt>
      <trkpt lat="47.24389" lon="-1.07023">
        <ele>106</ele>
        <time>2017-10-01T09:57:23Z</time>
      </trkpt>
      <trkpt lat="47.24406" lon="-1.07006">
        <ele>106</ele>
        <time>2017-10-01T09:57:35Z</time>
      </trkpt>
      <trkpt lat="47.24415" lon="-1.06982">
        <ele>106</ele>
        <time>2017-10-01T09:57:47Z</time>
      </trkpt>
      <trkpt lat="47.2448" lon="-1.06864">
        <ele>104</ele>
        <time>2017-10-01T09:58:53Z</time>
      </trkpt>
      <trkpt lat="47.24512" lon="-1.06783">
        <ele>102</ele>
        <time>2017-10-01T09:59:35Z</time>
      </trkpt>
      <trkpt lat="47.24536" lon="-1.06739">
        <ele>102</ele>
        <time>2017-10-01T09:59:59Z</time>
      </trkpt>
      <trkpt lat="47.24563" lon="-1.06702">
        <ele>101</ele>
        <time>2017-10-01T10:00:23Z</time>
      </trkpt>
      <trkpt lat="47.24597" lon="-1.0663">
        <ele>103</ele>
        <time>2017-10-01T10:01:05Z</time>
      </trkpt>
      <trkpt lat="47.24609" lon="-1.06609">
        <ele>102</ele>
        <time>2017-10-01T10:01:17Z</time>
      </trkpt>
      <trkpt lat="47.24618" lon="-1.06603">
        <ele>102</ele>
        <time>2017-10-01T10:01:24Z</time>
      </trkpt>
      <trkpt lat="47.24629" lon="-1.06563">
        <ele>102</ele>
        <time>2017-10-01T10:01:43Z</time>
      </trkpt>
      <trkpt lat="47.24648" lon="-1.06523">
        <ele>101</ele>
        <time>2017-10-01T10:02:07Z</time>
      </trkpt>
      <trkpt lat="47.24643" lon="-1.06486">
        <ele>101</ele>
        <time>2017-10-01T10:02:25Z</time>
      </trkpt>
      <trkpt lat="47.24614" lon="-1.06446">
        <ele>102</ele>
        <time>2017-10-01T10:02:54Z</time>
      </trkpt>
      <trkpt lat="47.24609" lon="-1.06324">
        <ele>101</ele>
        <time>2017-10-01T10:03:54Z</time>
      </trkpt>
      <trkpt lat="47.24616" lon="-1.06275">
        <ele>101</ele>
        <time>2017-10-01T10:04:18Z</time>
      </trkpt>
      <trkpt lat="47.24648" lon="-1.0622">
        <ele>100</ele>
        <time>2017-10-01T10:04:54Z</time>
      </trkpt>
      <trkpt lat="47.24694" lon="-1.06165">
        <ele>100</ele>
        <time>2017-10-01T10:05:36Z</time>
      </trkpt>
      <trkpt lat="47.24712" lon="-1.06161">
        <ele>100</ele>
        <time>2017-10-01T10:05:47Z</time>
      </trkpt>
      <trkpt lat="47.24705" lon="-1.06162">
        <ele>100</ele>
        <time>2017-10-01T10:05:52Z</time>
      </trkpt>
      <trkpt lat="47.24742" lon="-1.06214">
        <ele>99</ele>
        <time>2017-10-01T10:06:23Z</time>
      </trkpt>
      <trkpt lat="47.24774" lon="-1.06233">
        <ele>99</ele>
        <time>2017-10-01T10:06:53Z</time>
      </trkpt>
      <trkpt lat="47.24797" lon="-1.06225">
        <ele>99</ele>
        <time>2017-10-01T10:07:05Z</time>
      </trkpt>
      <trkpt lat="47.24823" lon="-1.06182">
        <ele>101</ele>
        <time>2017-10-01T10:07:29Z</time>
      </trkpt>
      <trkpt lat="47.24834" lon="-1.06156">
        <ele>99</ele>
        <time>2017-10-01T10:07:47Z</time>
      </trkpt>
      <trkpt lat="47.2485" lon="-1.0614">
        <ele>96</ele>
        <time>2017-10-01T10:07:59Z</time>
      </trkpt>
      <trkpt lat="47.24858" lon="-1.06124">
        <ele>94</ele>
        <time>2017-10-01T10:08:11Z</time>
      </trkpt>
      <trkpt lat="47.24868" lon="-1.06104">
        <ele>92</ele>
        <time>2017-10-01T10:08:29Z</time>
      </trkpt>
      <trkpt lat="47.24874" lon="-1.06078">
        <ele>90</ele>
        <time>2017-10-01T10:08:41Z</time>
      </trkpt>
      <trkpt lat="47.24893" lon="-1.06041">
        <ele>88</ele>
        <time>2017-10-01T10:09:05Z</time>
      </trkpt>
      <trkpt lat="47.24897" lon="-1.05968">
        <ele>88</ele>
        <time>2017-10-01T10:09:35Z</time>
      </trkpt>
      <trkpt lat="47.24907" lon="-1.05935">
        <ele>85</ele>
        <time>2017-10-01T10:09:53Z</time>
      </trkpt>
      <trkpt lat="47.24911" lon="-1.05898">
        <ele>85</ele>
        <time>2017-10-01T10:10:11Z</time>
      </trkpt>
      <trkpt lat="47.24931" lon="-1.05847">
        <ele>82</ele>
        <time>2017-10-01T10:10:42Z</time>
      </trkpt>
      <trkpt lat="47.24931" lon="-1.05822">
        <ele>84</ele>
        <time>2017-10-01T10:10:54Z</time>
      </trkpt>
      <trkpt lat="47.24933" lon="-1.05824">
        <ele>84</ele>
        <time>2017-10-01T10:10:57Z</time>
      </trkpt>
      <trkpt lat="47.24941" lon="-1.05804">
        <ele>85</ele>
        <time>2017-10-01T10:11:09Z</time>
      </trkpt>
      <trkpt lat="47.24965" lon="-1.05795">
        <ele>83</ele>
        <time>2017-10-01T10:11:27Z</time>
      </trkpt>
      <trkpt lat="47.24998" lon="-1.058">
        <ele>80</ele>
        <time>2017-10-01T10:11:52Z</time>
      </trkpt>
      <trkpt lat="47.25082" lon="-1.05797">
        <ele>75</ele>
        <time>2017-10-01T10:12:52Z</time>
      </trkpt>
      <trkpt lat="47.25123" lon="-1.05771">
        <ele>74</ele>
        <time>2017-10-01T10:13:22Z</time>
      </trkpt>
      <trkpt lat="47.2516" lon="-1.05727">
        <ele>74</ele>
        <time>2017-10-01T10:13:58Z</time>
      </trkpt>
      <trkpt lat="47.25195" lon="-1.05717">
        <ele>72</ele>
        <time>2017-10-01T10:14:22Z</time>
      </trkpt>
      <trkpt lat="47.25225" lon="-1.0569">
        <ele>71</ele>
        <time>2017-10-01T10:14:46Z</time>
      </trkpt>
      <trkpt lat="47.25236" lon="-1.05655">
        <ele>70</ele>
        <time>2017-10-01T10:15:04Z</time>
      </trkpt>
      <trkpt lat="47.2525" lon="-1.05572">
        <ele>67</ele>
        <time>2017-10-01T10:15:46Z</time>
      </trkpt>
      <trkpt lat="47.25261" lon="-1.05411">
        <ele>68</ele>
        <time>2017-10-01T10:16:58Z</time>
      </trkpt>
      <trkpt lat="47.25271" lon="-1.05381">
        <ele>66</ele>
        <time>2017-10-01T10:17:16Z</time>
      </trkpt>
      <trkpt lat="47.25275" lon="-1.05318">
        <ele>63</ele>
        <time>2017-10-01T10:17:42Z</time>
      </trkpt>
      <trkpt lat="47.25258" lon="-1.05248">
        <ele>68</ele>
        <time>2017-10-01T10:18:17Z</time>
      </trkpt>
      <trkpt lat="47.25261" lon="-1.05223">
        <ele>70</ele>
        <time>2017-10-01T10:18:29Z</time>
      </trkpt>
      <trkpt lat="47.2526" lon="-1.05181">
        <ele>70</ele>
        <time>2017-10-01T10:18:47Z</time>
      </trkpt>
      <trkpt lat="47.25266" lon="-1.05155">
        <ele>70</ele>
        <time>2017-10-01T10:18:59Z</time>
      </trkpt>
      <trkpt lat="47.25286" lon="-1.0511">
        <ele>62</ele>
        <time>2017-10-01T10:19:23Z</time>
      </trkpt>
      <trkpt lat="47.25287" lon="-1.05075">
        <ele>64</ele>
        <time>2017-10-01T10:19:41Z</time>
      </trkpt>
      <trkpt lat="47.25283" lon="-1.05067">
        <ele>65</ele>
        <time>2017-10-01T10:19:48Z</time>
      </trkpt>
      <trkpt lat="47.25276" lon="-1.05074">
        <ele>67</ele>
        <time>2017-10-01T10:19:55Z</time>
      </trkpt>
      <trkpt lat="47.25217" lon="-1.05078">
        <ele>68</ele>
        <time>2017-10-01T10:20:37Z</time>
      </trkpt>
      <trkpt lat="47.25193" lon="-1.0509">
        <ele>70</ele>
        <time>2017-10-01T10:20:55Z</time>
      </trkpt>
      <trkpt lat="47.25151" lon="-1.0507">
        <ele>72</ele>
        <time>2017-10-01T10:21:27Z</time>
      </trkpt>
      <trkpt lat="47.25104" lon="-1.05065">
        <ele>76</ele>
        <time>2017-10-01T10:22:02Z</time>
      </trkpt>
      <trkpt lat="47.25086" lon="-1.05052">
        <ele>78</ele>
        <time>2017-10-01T10:22:20Z</time>
      </trkpt>
      <trkpt lat="47.25085" lon="-1.05032">
        <ele>77</ele>
        <time>2017-10-01T10:22:32Z</time>
      </trkpt>
      <trkpt lat="47.25092" lon="-1.04998">
        <ele>75</ele>
        <time>2017-10-01T10:22:56Z</time>
      </trkpt>
      <trkpt lat="47.25085" lon="-1.04982">
        <ele>76</ele>
        <time>2017-10-01T10:23:07Z</time>
      </trkpt>
      <trkpt lat="47.2502" lon="-1.04982">
        <ele>79</ele>
        <time>2017-10-01T10:24:01Z</time>
      </trkpt>
      <trkpt lat="47.25003" lon="-1.04995">
        <ele>81</ele>
        <time>2017-10-01T10:24:13Z</time>
      </trkpt>
      <trkpt lat="47.24957" lon="-1.04966">
        <ele>80</ele>
        <time>2017-10-01T10:24:43Z</time>
      </trkpt>
      <trkpt lat="47.24953" lon="-1.04944">
        <ele>80</ele>
        <time>2017-10-01T10:24:55Z</time>
      </trkpt>
      <trkpt lat="47.24955" lon="-1.04904">
        <ele>78</ele>
        <time>2017-10-01T10:25:23Z</time>
      </trkpt>
      <trkpt lat="47.24947" lon="-1.04782">
        <ele>74</ele>
        <time>2017-10-01T10:26:17Z</time>
      </trkpt>
      <trkpt lat="47.24941" lon="-1.04761">
        <ele>73</ele>
        <time>2017-10-01T10:26:29Z</time>
      </trkpt>
      <trkpt lat="47.24894" lon="-1.04785">
        <ele>75</ele>
        <time>2017-10-01T10:27:05Z</time>
      </trkpt>
      <trkpt lat="47.24756" lon="-1.04691">
        <ele>60</ele>
        <time>2017-10-01T10:28:53Z</time>
      </trkpt>
      <trkpt lat="47.24725" lon="-1.04621">
        <ele>57</ele>
        <time>2017-10-01T10:29:35Z</time>
      </trkpt>
      <trkpt lat="47.24694" lon="-1.04566">
        <ele>53</ele>
        <time>2017-10-01T10:30:05Z</time>
      </trkpt>
      <trkpt lat="47.24678" lon="-1.04551">
        <ele>49</ele>
        <time>2017-10-01T10:30:17Z</time>
      </trkpt>
      <trkpt lat="47.24664" lon="-1.04544">
        <ele>47</ele>
        <time>2017-10-01T10:30:29Z</time>
      </trkpt>
      <trkpt lat="47.2465" lon="-1.04528">
        <ele>44</ele>
        <time>2017-10-01T10:30:41Z</time>
      </trkpt>
      <trkpt lat="47.24643" lon="-1.04516">
        <ele>42</ele>
        <time>2017-10-01T10:30:47Z</time>
      </trkpt>
      <trkpt lat="47.24638" lon="-1.04486">
        <ele>39</ele>
        <time>2017-10-01T10:30:59Z</time>
      </trkpt>
      <trkpt lat="47.24651" lon="-1.04426">
        <ele>35</ele>
        <time>2017-10-01T10:31:29Z</time>
      </trkpt>
      <trkpt lat="47.24653" lon="-1.04367">
        <ele>32</ele>
        <time>2017-10-01T10:31:53Z</time>
      </trkpt>
      <trkpt lat="47.24661" lon="-1.04367">
        <ele>32</ele>
        <time>2017-10-01T10:32:19Z</time>
      </trkpt>
      <trkpt lat="47.24668" lon="-1.04348">
        <ele>32</ele>
        <time>2017-10-01T10:32:33Z</time>
      </trkpt>
      <trkpt lat="47.24702" lon="-1.04289">
        <ele>31</ele>
        <time>2017-10-01T10:33:15Z</time>
      </trkpt>
      <trkpt lat="47.24724" lon="-1.04229">
        <ele>31</ele>
        <time>2017-10-01T10:33:45Z</time>
      </trkpt>
      <trkpt lat="47.24737" lon="-1.04204">
        <ele>31</ele>
        <time>2017-10-01T10:34:03Z</time>
      </trkpt>
      <trkpt lat="47.2473" lon="-1.04188">
        <ele>32</ele>
        <time>2017-10-01T10:34:15Z</time>
      </trkpt>
      <trkpt lat="47.24703" lon="-1.04161">
        <ele>35</ele>
        <time>2017-10-01T10:34:39Z</time>
      </trkpt>
      <trkpt lat="47.24639" lon="-1.04123">
        <ele>40</ele>
        <time>2017-10-01T10:35:21Z</time>
      </trkpt>
      <trkpt lat="47.24608" lon="-1.04122">
        <ele>43</ele>
        <time>2017-10-01T10:35:45Z</time>
      </trkpt>
      <trkpt lat="47.2459" lon="-1.04147">
        <ele>45</ele>
        <time>2017-10-01T10:36:03Z</time>
      </trkpt>
      <trkpt lat="47.24553" lon="-1.04179">
        <ele>50</ele>
        <time>2017-10-01T10:36:33Z</time>
      </trkpt>
      <trkpt lat="47.24511" lon="-1.04247">
        <ele>56</ele>
        <time>2017-10-01T10:37:15Z</time>
      </trkpt>
      <trkpt lat="47.24489" lon="-1.0427">
        <ele>58</ele>
        <time>2017-10-01T10:37:39Z</time>
      </trkpt>
      <trkpt lat="47.24479" lon="-1.04285">
        <ele>58</ele>
        <time>2017-10-01T10:37:53Z</time>
      </trkpt>
      <trkpt lat="47.24458" lon="-1.04298">
        <ele>59</ele>
        <time>2017-10-01T10:38:11Z</time>
      </trkpt>
      <trkpt lat="47.24439" lon="-1.04299">
        <ele>59</ele>
        <time>2017-10-01T10:38:23Z</time>
      </trkpt>
      <trkpt lat="47.2443" lon="-1.04292">
        <ele>59</ele>
        <time>2017-10-01T10:38:29Z</time>
      </trkpt>
      <trkpt lat="47.24408" lon="-1.04257">
        <ele>60</ele>
        <time>2017-10-01T10:38:53Z</time>
      </trkpt>
      <trkpt lat="47.24404" lon="-1.04247">
        <ele>60</ele>
        <time>2017-10-01T10:38:58Z</time>
      </trkpt>
      <trkpt lat="47.24404" lon="-1.04211">
        <ele>60</ele>
        <time>2017-10-01T10:39:17Z</time>
      </trkpt>
      <trkpt lat="47.24372" lon="-1.04169">
        <ele>58</ele>
        <time>2017-10-01T10:39:46Z</time>
      </trkpt>
      <trkpt lat="47.24358" lon="-1.0414">
        <ele>57</ele>
        <time>2017-10-01T10:40:05Z</time>
      </trkpt>
      <trkpt lat="47.24339" lon="-1.04084">
        <ele>54</ele>
        <time>2017-10-01T10:40:35Z</time>
      </trkpt>
      <trkpt lat="47.24281" lon="-1.03947">
        <ele>50</ele>
        <time>2017-10-01T10:41:47Z</time>
      </trkpt>
      <trkpt lat="47.2427" lon="-1.03905">
        <ele>51</ele>
        <time>2017-10-01T10:42:11Z</time>
      </trkpt>
      <trkpt lat="47.24246" lon="-1.03881">
        <ele>54</ele>
        <time>2017-10-01T10:42:35Z</time>
      </trkpt>
      <trkpt lat="47.24169" lon="-1.03854">
        <ele>63</ele>
        <time>2017-10-01T10:43:29Z</time>
      </trkpt>
      <trkpt lat="47.24121" lon="-1.03866">
        <ele>67</ele>
        <time>2017-10-01T10:43:59Z</time>
      </trkpt>
      <trkpt lat="47.24006" lon="-1.03931">
        <ele>78</ele>
        <time>2017-10-01T10:45:28Z</time>
      </trkpt>
      <trkpt lat="47.24008" lon="-1.03923">
        <ele>78</ele>
        <time>2017-10-01T10:45:30Z</time>
      </trkpt>
      <trkpt lat="47.23994" lon="-1.03993">
        <ele>77</ele>
        <time>2017-10-01T10:46:03Z</time>
      </trkpt>
      <trkpt lat="47.23954" lon="-1.04105">
        <ele>80</ele>
        <time>2017-10-01T10:46:57Z</time>
      </trkpt>
      <trkpt lat="47.23909" lon="-1.04136">
        <ele>86</ele>
        <time>2017-10-01T10:47:33Z</time>
      </trkpt>
      <trkpt lat="47.23856" lon="-1.04164">
        <ele>89</ele>
        <time>2017-10-01T10:48:15Z</time>
      </trkpt>
      <trkpt lat="47.23826" lon="-1.04162">
        <ele>82</ele>
        <time>2017-10-01T10:48:33Z</time>
      </trkpt>
      <trkpt lat="47.23814" lon="-1.04133">
        <ele>80</ele>
        <time>2017-10-01T10:48:45Z</time>
      </trkpt>
      <trkpt lat="47.23807" lon="-1.04106">
        <ele>79</ele>
        <time>2017-10-01T10:48:57Z</time>
      </trkpt>
      <trkpt lat="47.23795" lon="-1.04003">
        <ele>76</ele>
        <time>2017-10-01T10:49:45Z</time>
      </trkpt>
      <trkpt lat="47.238" lon="-1.03881">
        <ele>78</ele>
        <time>2017-10-01T10:50:45Z</time>
      </trkpt>
      <trkpt lat="47.23793" lon="-1.03792">
        <ele>79</ele>
        <time>2017-10-01T10:51:27Z</time>
      </trkpt>
      <trkpt lat="47.23772" lon="-1.03752">
        <ele>79</ele>
        <time>2017-10-01T10:51:51Z</time>
      </trkpt>
      <trkpt lat="47.23755" lon="-1.03661">
        <ele>79</ele>
        <time>2017-10-01T10:52:33Z</time>
      </trkpt>
      <trkpt lat="47.23755" lon="-1.03612">
        <ele>78</ele>
        <time>2017-10-01T10:52:57Z</time>
      </trkpt>
      <trkpt lat="47.23762" lon="-1.03561">
        <ele>75</ele>
        <time>2017-10-01T10:53:21Z</time>
      </trkpt>
      <trkpt lat="47.23768" lon="-1.03538">
        <ele>73</ele>
        <time>2017-10-01T10:53:32Z</time>
      </trkpt>
      <trkpt lat="47.23769" lon="-1.03517">
        <ele>70</ele>
        <time>2017-10-01T10:53:44Z</time>
      </trkpt>
      <trkpt lat="47.23791" lon="-1.03463">
        <ele>68</ele>
        <time>2017-10-01T10:54:14Z</time>
      </trkpt>
      <trkpt lat="47.23812" lon="-1.0344">
        <ele>68</ele>
        <time>2017-10-01T10:54:32Z</time>
      </trkpt>
      <trkpt lat="47.23831" lon="-1.03431">
        <ele>68</ele>
        <time>2017-10-01T10:54:44Z</time>
      </trkpt>
      <trkpt lat="47.23853" lon="-1.03425">
        <ele>66</ele>
        <time>2017-10-01T10:54:50Z</time>
      </trkpt>
      <trkpt lat="47.23907" lon="-1.03435">
        <ele>62</ele>
        <time>2017-10-01T10:55:26Z</time>
      </trkpt>
      <trkpt lat="47.23956" lon="-1.03421">
        <ele>56</ele>
        <time>2017-10-01T10:55:56Z</time>
      </trkpt>
      <trkpt lat="47.24004" lon="-1.03431">
        <ele>54</ele>
        <time>2017-10-01T10:56:26Z</time>
      </trkpt>
      <trkpt lat="47.24023" lon="-1.0339">
        <ele>50</ele>
        <time>2017-10-01T10:56:50Z</time>
      </trkpt>
      <trkpt lat="47.24033" lon="-1.03339">
        <ele>44</ele>
        <time>2017-10-01T10:57:20Z</time>
      </trkpt>
      <trkpt lat="47.24053" lon="-1.03322">
        <ele>41</ele>
        <time>2017-10-01T10:57:38Z</time>
      </trkpt>
      <trkpt lat="47.24077" lon="-1.03312">
        <ele>39</ele>
        <time>2017-10-01T10:57:50Z</time>
      </trkpt>
      <trkpt lat="47.241" lon="-1.03272">
        <ele>34</ele>
        <time>2017-10-01T10:58:33Z</time>
      </trkpt>
      <trkpt lat="47.24109" lon="-1.03276">
        <ele>34</ele>
        <time>2017-10-01T10:58:40Z</time>
      </trkpt>
      <trkpt lat="47.2412" lon="-1.03259">
        <ele>33</ele>
        <time>2017-10-01T10:59:04Z</time>
      </trkpt>
      <trkpt lat="47.24115" lon="-1.0327">
        <ele>34</ele>
        <time>2017-10-01T10:59:18Z</time>
      </trkpt>
      <trkpt lat="47.24084" lon="-1.03247">
        <ele>34</ele>
        <time>2017-10-01T10:59:44Z</time>
      </trkpt>
      <trkpt lat="47.24065" lon="-1.0324">
        <ele>34</ele>
        <time>2017-10-01T10:59:56Z</time>
      </trkpt>
      <trkpt lat="47.24056" lon="-1.03243">
        <ele>33</ele>
        <time>2017-10-01T11:00:08Z</time>
      </trkpt>
      <trkpt lat="47.23968" lon="-1.03229">
        <ele>32</ele>
        <time>2017-10-01T11:01:14Z</time>
      </trkpt>
      <trkpt lat="47.23892" lon="-1.03227">
        <ele>31</ele>
        <time>2017-10-01T11:02:08Z</time>
      </trkpt>
      <trkpt lat="47.23842" lon="-1.0325">
        <ele>32</ele>
        <time>2017-10-01T11:02:44Z</time>
      </trkpt>
      <trkpt lat="47.23829" lon="-1.03265">
        <ele>31</ele>
        <time>2017-10-01T11:02:56Z</time>
      </trkpt>
      <trkpt lat="47.23807" lon="-1.03278">
        <ele>32</ele>
        <time>2017-10-01T11:03:08Z</time>
      </trkpt>
      <trkpt lat="47.23726" lon="-1.03404">
        <ele>37</ele>
        <time>2017-10-01T11:04:26Z</time>
      </trkpt>
      <trkpt lat="47.23711" lon="-1.03409">
        <ele>37</ele>
        <time>2017-10-01T11:04:38Z</time>
      </trkpt>
      <trkpt lat="47.23705" lon="-1.03396">
        <ele>40</ele>
        <time>2017-10-01T11:05:00Z</time>
      </trkpt>
      <trkpt lat="47.23663" lon="-1.0344">
        <ele>40</ele>
        <time>2017-10-01T11:05:48Z</time>
      </trkpt>
      <trkpt lat="47.23646" lon="-1.03445">
        <ele>41</ele>
        <time>2017-10-01T11:06:05Z</time>
      </trkpt>
      <trkpt lat="47.23643" lon="-1.03442">
        <ele>42</ele>
        <time>2017-10-01T11:06:12Z</time>
      </trkpt>
      <trkpt lat="47.23652" lon="-1.03404">
        <ele>51</ele>
        <time>2017-10-01T11:06:47Z</time>
      </trkpt>
      <trkpt lat="47.23653" lon="-1.03357">
        <ele>60</ele>
        <time>2017-10-01T11:07:23Z</time>
      </trkpt>
      <trkpt lat="47.23676" lon="-1.03335">
        <ele>59</ele>
        <time>2017-10-01T11:07:39Z</time>
      </trkpt>
      <trkpt lat="47.23682" lon="-1.03317">
        <ele>57</ele>
        <time>2017-10-01T11:07:54Z</time>
      </trkpt>
      <trkpt lat="47.2366" lon="-1.03318">
        <ele>60</ele>
        <time>2017-10-01T11:08:18Z</time>
      </trkpt>
      <trkpt lat="47.23637" lon="-1.03309">
        <ele>63</ele>
        <time>2017-10-01T11:08:45Z</time>
      </trkpt>
      <trkpt lat="47.23611" lon="-1.03306">
        <ele>69</ele>
        <time>2017-10-01T11:09:08Z</time>
      </trkpt>
      <trkpt lat="47.23581" lon="-1.03278">
        <ele>73</ele>
        <time>2017-10-01T11:09:44Z</time>
      </trkpt>
      <trkpt lat="47.23553" lon="-1.03262">
        <ele>77</ele>
        <time>2017-10-01T11:10:08Z</time>
      </trkpt>
      <trkpt lat="47.2354" lon="-1.03247">
        <ele>77</ele>
        <time>2017-10-01T11:10:20Z</time>
      </trkpt>
      <trkpt lat="47.23525" lon="-1.03243">
        <ele>79</ele>
        <time>2017-10-01T11:10:32Z</time>
      </trkpt>
      <trkpt lat="47.23509" lon="-1.03224">
        <ele>80</ele>
        <time>2017-10-01T11:10:51Z</time>
      </trkpt>
      <trkpt lat="47.235" lon="-1.03181">
        <ele>77</ele>
        <time>2017-10-01T11:11:15Z</time>
      </trkpt>
      <trkpt lat="47.2348" lon="-1.03138">
        <ele>80</ele>
        <time>2017-10-01T11:11:39Z</time>
      </trkpt>
      <trkpt lat="47.23474" lon="-1.03102">
        <ele>79</ele>
        <time>2017-10-01T11:11:57Z</time>
      </trkpt>
      <trkpt lat="47.23457" lon="-1.03057">
        <ele>81</ele>
        <time>2017-10-01T11:12:15Z</time>
      </trkpt>
      <trkpt lat="47.23445" lon="-1.02984">
        <ele>78</ele>
        <time>2017-10-01T11:12:52Z</time>
      </trkpt>
      <trkpt lat="47.23433" lon="-1.02977">
        <ele>80</ele>
        <time>2017-10-01T11:13:03Z</time>
      </trkpt>
      <trkpt lat="47.23414" lon="-1.03009">
        <ele>83</ele>
        <time>2017-10-01T11:13:27Z</time>
      </trkpt>
      <trkpt lat="47.2339" lon="-1.03037">
        <ele>86</ele>
        <time>2017-10-01T11:13:51Z</time>
      </trkpt>
      <trkpt lat="47.23322" lon="-1.03091">
        <ele>89</ele>
        <time>2017-10-01T11:14:45Z</time>
      </trkpt>
      <trkpt lat="47.23309" lon="-1.03112">
        <ele>89</ele>
        <time>2017-10-01T11:15:03Z</time>
      </trkpt>
      <trkpt lat="47.23304" lon="-1.03109">
        <ele>88</ele>
        <time>2017-10-01T11:15:16Z</time>
      </trkpt>
      <trkpt lat="47.23305" lon="-1.03104">
        <ele>88</ele>
        <time>2017-10-01T11:15:23Z</time>
      </trkpt>
      <trkpt lat="47.23309" lon="-1.03104">
        <ele>88</ele>
        <time>2017-10-01T11:15:27Z</time>
      </trkpt>
      <trkpt lat="47.233" lon="-1.03127">
        <ele>88</ele>
        <time>2017-10-01T11:15:33Z</time>
      </trkpt>
      <trkpt lat="47.23273" lon="-1.03174">
        <ele>88</ele>
        <time>2017-10-01T11:15:57Z</time>
      </trkpt>
      <trkpt lat="47.23199" lon="-1.03254">
        <ele>84</ele>
        <time>2017-10-01T11:16:57Z</time>
      </trkpt>
      <trkpt lat="47.23178" lon="-1.03225">
        <ele>80</ele>
        <time>2017-10-01T11:17:15Z</time>
      </trkpt>
      <trkpt lat="47.23148" lon="-1.03195">
        <ele>75</ele>
        <time>2017-10-01T11:17:39Z</time>
      </trkpt>
      <trkpt lat="47.23103" lon="-1.03155">
        <ele>65</ele>
        <time>2017-10-01T11:18:09Z</time>
      </trkpt>
      <trkpt lat="47.23078" lon="-1.03139">
        <ele>64</ele>
        <time>2017-10-01T11:18:27Z</time>
      </trkpt>
      <trkpt lat="47.23059" lon="-1.03142">
        <ele>63</ele>
        <time>2017-10-01T11:18:39Z</time>
      </trkpt>
      <trkpt lat="47.23011" lon="-1.03174">
        <ele>65</ele>
        <time>2017-10-01T11:19:15Z</time>
      </trkpt>
      <trkpt lat="47.22909" lon="-1.03201">
        <ele>66</ele>
        <time>2017-10-01T11:20:21Z</time>
      </trkpt>
      <trkpt lat="47.22866" lon="-1.03217">
        <ele>70</ele>
        <time>2017-10-01T11:20:51Z</time>
      </trkpt>
      <trkpt lat="47.22846" lon="-1.03218">
        <ele>71</ele>
        <time>2017-10-01T11:21:03Z</time>
      </trkpt>
      <trkpt lat="47.22751" lon="-1.03247">
        <ele>77</ele>
        <time>2017-10-01T11:22:03Z</time>
      </trkpt>
      <trkpt lat="47.22723" lon="-1.0325">
        <ele>77</ele>
        <time>2017-10-01T11:22:21Z</time>
      </trkpt>
      <trkpt lat="47.22718" lon="-1.03226">
        <ele>75</ele>
        <time>2017-10-01T11:22:33Z</time>
      </trkpt>
      <trkpt lat="47.22719" lon="-1.03171">
        <ele>69</ele>
        <time>2017-10-01T11:22:57Z</time>
      </trkpt>
      <trkpt lat="47.22728" lon="-1.03134">
        <ele>67</ele>
        <time>2017-10-01T11:23:15Z</time>
      </trkpt>
      <trkpt lat="47.2275" lon="-1.03077">
        <ele>63</ele>
        <time>2017-10-01T11:23:45Z</time>
      </trkpt>
      <trkpt lat="47.22731" lon="-1.0309">
        <ele>62</ele>
        <time>2017-10-01T11:24:09Z</time>
      </trkpt>
      <trkpt lat="47.22704" lon="-1.0294">
        <ele>55</ele>
        <time>2017-10-01T11:25:26Z</time>
      </trkpt>
      <trkpt lat="47.22689" lon="-1.02894">
        <ele>55</ele>
        <time>2017-10-01T11:25:50Z</time>
      </trkpt>
      <trkpt lat="47.22665" lon="-1.02858">
        <ele>56</ele>
        <time>2017-10-01T11:26:14Z</time>
      </trkpt>
      <trkpt lat="47.22643" lon="-1.02845">
        <ele>55</ele>
        <time>2017-10-01T11:26:32Z</time>
      </trkpt>
      <trkpt lat="47.22631" lon="-1.02847">
        <ele>52</ele>
        <time>2017-10-01T11:26:46Z</time>
      </trkpt>
      <trkpt lat="47.22613" lon="-1.02773">
        <ele>53</ele>
        <time>2017-10-01T11:27:24Z</time>
      </trkpt>
      <trkpt lat="47.22596" lon="-1.02744">
        <ele>50</ele>
        <time>2017-10-01T11:27:42Z</time>
      </trkpt>
      <trkpt lat="47.22567" lon="-1.02656">
        <ele>46</ele>
        <time>2017-10-01T11:28:30Z</time>
      </trkpt>
      <trkpt lat="47.22561" lon="-1.02622">
        <ele>45</ele>
        <time>2017-10-01T11:28:48Z</time>
      </trkpt>
      <trkpt lat="47.22515" lon="-1.02471">
        <ele>41</ele>
        <time>2017-10-01T11:30:06Z</time>
      </trkpt>
      <trkpt lat="47.22506" lon="-1.02423">
        <ele>43</ele>
        <time>2017-10-01T11:30:36Z</time>
      </trkpt>
      <trkpt lat="47.22482" lon="-1.02363">
        <ele>43</ele>
        <time>2017-10-01T11:31:12Z</time>
      </trkpt>
      <trkpt lat="47.22467" lon="-1.02343">
        <ele>42</ele>
        <time>2017-10-01T11:31:30Z</time>
      </trkpt>
      <trkpt lat="47.22454" lon="-1.02336">
        <ele>41</ele>
        <time>2017-10-01T11:31:48Z</time>
      </trkpt>
      <trkpt lat="47.22444" lon="-1.02318">
        <ele>40</ele>
        <time>2017-10-01T11:32:00Z</time>
      </trkpt>
      <trkpt lat="47.22427" lon="-1.02276">
        <ele>38</ele>
        <time>2017-10-01T11:32:24Z</time>
      </trkpt>
      <trkpt lat="47.22417" lon="-1.02238">
        <ele>38</ele>
        <time>2017-10-01T11:32:52Z</time>
      </trkpt>
      <trkpt lat="47.22413" lon="-1.0224">
        <ele>35</ele>
        <time>2017-10-01T11:32:54Z</time>
      </trkpt>
      <trkpt lat="47.22413" lon="-1.02248">
        <ele>35</ele>
        <time>2017-10-01T11:33:09Z</time>
      </trkpt>
      <trkpt lat="47.22397" lon="-1.02117">
        <ele>35</ele>
        <time>2017-10-01T11:34:14Z</time>
      </trkpt>
      <trkpt lat="47.22402" lon="-1.02082">
        <ele>35</ele>
        <time>2017-10-01T11:34:38Z</time>
      </trkpt>
      <trkpt lat="47.22403" lon="-1.02094">
        <ele>35</ele>
        <time>2017-10-01T11:34:56Z</time>
      </trkpt>
      <trkpt lat="47.2241" lon="-1.02094">
        <ele>35</ele>
        <time>2017-10-01T11:35:10Z</time>
      </trkpt>
      <trkpt lat="47.22407" lon="-1.02094">
        <ele>35</ele>
        <time>2017-10-01T11:35:19Z</time>
      </trkpt>
      <trkpt lat="47.22405" lon="-1.02103">
        <ele>35</ele>
        <time>2017-10-01T11:35:20Z</time>
      </trkpt>
      <trkpt lat="47.224" lon="-1.02162">
        <ele>36</ele>
        <time>2017-10-01T11:35:50Z</time>
      </trkpt>
      <trkpt lat="47.22407" lon="-1.02229">
        <ele>35</ele>
        <time>2017-10-01T11:36:26Z</time>
      </trkpt>
      <trkpt lat="47.22424" lon="-1.02296">
        <ele>36</ele>
        <time>2017-10-01T11:37:08Z</time>
      </trkpt>
      <trkpt lat="47.22443" lon="-1.02335">
        <ele>40</ele>
        <time>2017-10-01T11:37:32Z</time>
      </trkpt>
      <trkpt lat="47.22454" lon="-1.02346">
        <ele>38</ele>
        <time>2017-10-01T11:37:44Z</time>
      </trkpt>
      <trkpt lat="47.22461" lon="-1.02348">
        <ele>39</ele>
        <time>2017-10-01T11:37:56Z</time>
      </trkpt>
      <trkpt lat="47.22495" lon="-1.02422">
        <ele>39</ele>
        <time>2017-10-01T11:38:50Z</time>
      </trkpt>
      <trkpt lat="47.22522" lon="-1.02522">
        <ele>39</ele>
        <time>2017-10-01T11:39:50Z</time>
      </trkpt>
      <trkpt lat="47.22523" lon="-1.02541">
        <ele>38</ele>
        <time>2017-10-01T11:40:02Z</time>
      </trkpt>
      <trkpt lat="47.22551" lon="-1.02615">
        <ele>42</ele>
        <time>2017-10-01T11:40:44Z</time>
      </trkpt>
      <trkpt lat="47.22563" lon="-1.02671">
        <ele>44</ele>
        <time>2017-10-01T11:41:14Z</time>
      </trkpt>
      <trkpt lat="47.22574" lon="-1.02697">
        <ele>46</ele>
        <time>2017-10-01T11:41:32Z</time>
      </trkpt>
      <trkpt lat="47.22582" lon="-1.02732">
        <ele>47</ele>
        <time>2017-10-01T11:41:50Z</time>
      </trkpt>
      <trkpt lat="47.22608" lon="-1.02779">
        <ele>50</ele>
        <time>2017-10-01T11:42:20Z</time>
      </trkpt>
      <trkpt lat="47.2263" lon="-1.02847">
        <ele>52</ele>
        <time>2017-10-01T11:43:02Z</time>
      </trkpt>
      <trkpt lat="47.22619" lon="-1.0289">
        <ele>39</ele>
        <time>2017-10-01T11:43:49Z</time>
      </trkpt>
      <trkpt lat="47.22632" lon="-1.02856">
        <ele>51</ele>
        <time>2017-10-01T11:44:15Z</time>
      </trkpt>
      <trkpt lat="47.2264" lon="-1.02861">
        <ele>51</ele>
        <time>2017-10-01T11:44:33Z</time>
      </trkpt>
      <trkpt lat="47.22648" lon="-1.02878">
        <ele>49</ele>
        <time>2017-10-01T11:44:50Z</time>
      </trkpt>
      <trkpt lat="47.22649" lon="-1.02905">
        <ele>41</ele>
        <time>2017-10-01T11:45:08Z</time>
      </trkpt>
      <trkpt lat="47.22688" lon="-1.03027">
        <ele>38</ele>
        <time>2017-10-01T11:46:20Z</time>
      </trkpt>
      <trkpt lat="47.22684" lon="-1.03101">
        <ele>37</ele>
        <time>2017-10-01T11:46:56Z</time>
      </trkpt>
      <trkpt lat="47.22667" lon="-1.03177">
        <ele>41</ele>
        <time>2017-10-01T11:47:32Z</time>
      </trkpt>
      <trkpt lat="47.22651" lon="-1.03218">
        <ele>45</ele>
        <time>2017-10-01T11:47:56Z</time>
      </trkpt>
      <trkpt lat="47.22615" lon="-1.03277">
        <ele>44</ele>
        <time>2017-10-01T11:48:32Z</time>
      </trkpt>
      <trkpt lat="47.22546" lon="-1.0337">
        <ele>57</ele>
        <time>2017-10-01T11:49:38Z</time>
      </trkpt>
      <trkpt lat="47.2254" lon="-1.03371">
        <ele>57</ele>
        <time>2017-10-01T11:49:45Z</time>
      </trkpt>
      <trkpt lat="47.22526" lon="-1.03359">
        <ele>54</ele>
        <time>2017-10-01T11:49:56Z</time>
      </trkpt>
      <trkpt lat="47.22514" lon="-1.03363">
        <ele>55</ele>
        <time>2017-10-01T11:50:08Z</time>
      </trkpt>
      <trkpt lat="47.22492" lon="-1.03351">
        <ele>51</ele>
        <time>2017-10-01T11:50:20Z</time>
      </trkpt>
      <trkpt lat="47.22451" lon="-1.03342">
        <ele>51</ele>
        <time>2017-10-01T11:50:50Z</time>
      </trkpt>
      <trkpt lat="47.22431" lon="-1.03331">
        <ele>49</ele>
        <time>2017-10-01T11:51:02Z</time>
      </trkpt>
      <trkpt lat="47.22398" lon="-1.03303">
        <ele>41</ele>
        <time>2017-10-01T11:51:26Z</time>
      </trkpt>
      <trkpt lat="47.22382" lon="-1.03301">
        <ele>44</ele>
        <time>2017-10-01T11:51:38Z</time>
      </trkpt>
      <trkpt lat="47.22368" lon="-1.03307">
        <ele>47</ele>
        <time>2017-10-01T11:51:50Z</time>
      </trkpt>
      <trkpt lat="47.22362" lon="-1.03304">
        <ele>48</ele>
        <time>2017-10-01T11:51:56Z</time>
      </trkpt>
      <trkpt lat="47.2234" lon="-1.03251">
        <ele>43</ele>
        <time>2017-10-01T11:52:26Z</time>
      </trkpt>
      <trkpt lat="47.22331" lon="-1.03245">
        <ele>44</ele>
        <time>2017-10-01T11:52:32Z</time>
      </trkpt>
      <trkpt lat="47.22316" lon="-1.03248">
        <ele>48</ele>
        <time>2017-10-01T11:52:44Z</time>
      </trkpt>
      <trkpt lat="47.22316" lon="-1.03287">
        <ele>55</ele>
        <time>2017-10-01T11:53:08Z</time>
      </trkpt>
      <trkpt lat="47.22338" lon="-1.0336">
        <ele>59</ele>
        <time>2017-10-01T11:54:08Z</time>
      </trkpt>
      <trkpt lat="47.22337" lon="-1.03393">
        <ele>63</ele>
        <time>2017-10-01T11:54:26Z</time>
      </trkpt>
      <trkpt lat="47.22325" lon="-1.03428">
        <ele>68</ele>
        <time>2017-10-01T11:54:50Z</time>
      </trkpt>
      <trkpt lat="47.22328" lon="-1.0345">
        <ele>69</ele>
        <time>2017-10-01T11:55:02Z</time>
      </trkpt>
      <trkpt lat="47.22325" lon="-1.03461">
        <ele>70</ele>
        <time>2017-10-01T11:55:14Z</time>
      </trkpt>
      <trkpt lat="47.22364" lon="-1.03554">
        <ele>77</ele>
        <time>2017-10-01T11:56:14Z</time>
      </trkpt>
      <trkpt lat="47.22375" lon="-1.03561">
        <ele>78</ele>
        <time>2017-10-01T11:56:26Z</time>
      </trkpt>
      <trkpt lat="47.22385" lon="-1.03585">
        <ele>82</ele>
        <time>2017-10-01T11:56:44Z</time>
      </trkpt>
      <trkpt lat="47.22386" lon="-1.03626">
        <ele>86</ele>
        <time>2017-10-01T11:57:08Z</time>
      </trkpt>
      <trkpt lat="47.22393" lon="-1.03662">
        <ele>87</ele>
        <time>2017-10-01T11:57:26Z</time>
      </trkpt>
      <trkpt lat="47.2239" lon="-1.03695">
        <ele>88</ele>
        <time>2017-10-01T11:57:44Z</time>
      </trkpt>
      <trkpt lat="47.22407" lon="-1.0376">
        <ele>91</ele>
        <time>2017-10-01T11:58:14Z</time>
      </trkpt>
      <trkpt lat="47.22398" lon="-1.03771">
        <ele>90</ele>
        <time>2017-10-01T11:58:20Z</time>
      </trkpt>
      <trkpt lat="47.2239" lon="-1.03814">
        <ele>91</ele>
        <time>2017-10-01T11:58:38Z</time>
      </trkpt>
      <trkpt lat="47.2236" lon="-1.03854">
        <ele>92</ele>
        <time>2017-10-01T11:59:02Z</time>
      </trkpt>
      <trkpt lat="47.22354" lon="-1.03871">
        <ele>93</ele>
        <time>2017-10-01T11:59:20Z</time>
      </trkpt>
      <trkpt lat="47.22361" lon="-1.03898">
        <ele>92</ele>
        <time>2017-10-01T11:59:32Z</time>
      </trkpt>
      <trkpt lat="47.22366" lon="-1.03949">
        <ele>93</ele>
        <time>2017-10-01T11:59:56Z</time>
      </trkpt>
      <trkpt lat="47.22344" lon="-1.03987">
        <ele>94</ele>
        <time>2017-10-01T12:00:20Z</time>
      </trkpt>
      <trkpt lat="47.22313" lon="-1.04009">
        <ele>93</ele>
        <time>2017-10-01T12:00:44Z</time>
      </trkpt>
      <trkpt lat="47.22224" lon="-1.04038">
        <ele>92</ele>
        <time>2017-10-01T12:01:43Z</time>
      </trkpt>
      <trkpt lat="47.22199" lon="-1.04039">
        <ele>90</ele>
        <time>2017-10-01T12:02:01Z</time>
      </trkpt>
      <trkpt lat="47.22188" lon="-1.04026">
        <ele>90</ele>
        <time>2017-10-01T12:02:19Z</time>
      </trkpt>
      <trkpt lat="47.22192" lon="-1.04024">
        <ele>90</ele>
        <time>2017-10-01T12:02:25Z</time>
      </trkpt>
      <trkpt lat="47.22189" lon="-1.04024">
        <ele>90</ele>
        <time>2017-10-01T12:02:27Z</time>
      </trkpt>
    </trkseg>
  </trk>
</gpx>